UAE7CN EGLL-OMDB
Flight info
| Callsign | UAE7CN |
|---|---|
| Flight time | 7h 4m |
| Altitude | 35000 |
| Route | DET L6 DVR UL9 KONAN UL607 KOK DCT REMBA DCT LIRSU DCT KRH DCT UTABA DCT MOMUK DCT GEDSO/N0492F370 DCT VEKEN DCT MSR DCT PINDO DCT PAXIS Y707 OBRAN L321 REXUM M872 KULKI/N0492F390 M872 BDB Y214 RAPMA DCT KUVSO DCT KATIT DCT PEKEM M628 RIGIL G783 ELUDA/N0479F350 G783 ASPED Q308 KIPOK Q568 IMPED |
| Aircraft | A388/J-SADE2E3FGHIJ3J4J5M1RWXY/LB1D1 |
Departure
| Time | 2026-05-07 05:26 |
|---|---|
| Airport | London Heathrow Airport (EGLL) |
Arrival
| Time | 2026-05-07 12:31 |
|---|---|
| Airport | Dubai International Airport (OMDB) |
| Time | Latitude | Longitude | Altitude | Speed | Heading |
|---|---|---|---|---|---|
| 2026-05-07 04:25 | 51.46834 | -0.45575 | 95 ft | 0 kts | 360° |
| 2026-05-07 05:10 | 51.46812 | -0.45573 | 92 ft | 4 kts | 351° |
| 2026-05-07 05:11 | 51.46787 | -0.45563 | 92 ft | 4 kts | 336° |
| 2026-05-07 05:11 | 51.46766 | -0.45541 | 93 ft | 4 kts | 315° |
| 2026-05-07 05:11 | 51.46753 | -0.45510 | 92 ft | 4 kts | 290° |
| 2026-05-07 05:11 | 51.46749 | -0.45477 | 93 ft | 1 kts | 270° |
| 2026-05-07 05:17 | 51.46749 | -0.45495 | 93 ft | 4 kts | 269° |
| 2026-05-07 05:18 | 51.46749 | -0.45555 | 95 ft | 7 kts | 269° |
| 2026-05-07 05:18 | 51.46748 | -0.45655 | 95 ft | 11 kts | 268° |
| 2026-05-07 05:18 | 51.46747 | -0.45775 | 95 ft | 5 kts | 269° |
| 2026-05-07 05:18 | 51.46747 | -0.45846 | 95 ft | 8 kts | 270° |
| 2026-05-07 05:19 | 51.46747 | -0.45940 | 95 ft | 7 kts | 270° |
| 2026-05-07 05:19 | 51.46747 | -0.45964 | 95 ft | 3 kts | 270° |
| 2026-05-07 05:19 | 51.46747 | -0.46021 | 95 ft | 7 kts | 269° |
| 2026-05-07 05:19 | 51.46746 | -0.46122 | 95 ft | 11 kts | 270° |
| 2026-05-07 05:20 | 51.46745 | -0.46256 | 95 ft | 13 kts | 270° |
| 2026-05-07 05:20 | 51.46745 | -0.46416 | 95 ft | 16 kts | 270° |
| 2026-05-07 05:20 | 51.46747 | -0.46600 | 96 ft | 17 kts | 270° |
| 2026-05-07 05:20 | 51.46745 | -0.46799 | 95 ft | 19 kts | 269° |
| 2026-05-07 05:21 | 51.46745 | -0.47015 | 95 ft | 20 kts | 271° |
| 2026-05-07 05:21 | 51.46746 | -0.47474 | 95 ft | 21 kts | 270° |
| 2026-05-07 05:21 | 51.46744 | -0.47714 | 95 ft | 22 kts | 269° |
| 2026-05-07 05:22 | 51.46742 | -0.47959 | 92 ft | 22 kts | 270° |
| 2026-05-07 05:22 | 51.46742 | -0.48198 | 92 ft | 21 kts | 270° |
| 2026-05-07 05:22 | 51.46740 | -0.48413 | 92 ft | 19 kts | 269° |
| 2026-05-07 05:22 | 51.46738 | -0.48608 | 92 ft | 14 kts | 269° |
| 2026-05-07 05:23 | 51.46726 | -0.48718 | 96 ft | 8 kts | 220° |
| 2026-05-07 05:23 | 51.46664 | -0.48752 | 95 ft | 11 kts | 186° |
| 2026-05-07 05:23 | 51.46606 | -0.48776 | 97 ft | 0 kts | 199° |
| 2026-05-07 05:24 | 51.46597 | -0.48780 | 94 ft | 3 kts | 190° |
| 2026-05-07 05:24 | 51.46560 | -0.48783 | 95 ft | 7 kts | 176° |
| 2026-05-07 05:24 | 51.46507 | -0.48756 | 96 ft | 9 kts | 155° |
| 2026-05-07 05:25 | 51.46483 | -0.48704 | 95 ft | 6 kts | 99° |
| 2026-05-07 05:25 | 51.46485 | -0.48647 | 96 ft | 6 kts | 86° |
| 2026-05-07 05:25 | 51.46487 | -0.48523 | 97 ft | 31 kts | 92° |
| 2026-05-07 05:25 | 51.46481 | -0.47754 | 93 ft | 104 kts | 89° |
| 2026-05-07 05:26 | 51.46482 | -0.46287 | 95 ft | 153 kts | 88° |
| 2026-05-07 05:26 | 51.46488 | -0.44425 | 209 ft | 174 kts | 90° |
| 2026-05-07 05:26 | 51.46485 | -0.42539 | 787 ft | 166 kts | 87° |
| 2026-05-07 05:26 | 51.46331 | -0.40699 | 1271 ft | 171 kts | 113° |
| 2026-05-07 05:27 | 51.45687 | -0.39094 | 1760 ft | 174 kts | 124° |
| 2026-05-07 05:27 | 51.44926 | -0.37508 | 1936 ft | 190 kts | 123° |
| 2026-05-07 05:27 | 51.44189 | -0.35668 | 2083 ft | 203 kts | 114° |
| 2026-05-07 05:27 | 51.43618 | -0.33529 | 2195 ft | 214 kts | 106° |
| 2026-05-07 05:28 | 51.43177 | -0.31157 | 2328 ft | 233 kts | 102° |
| 2026-05-07 05:28 | 51.42782 | -0.28535 | 2635 ft | 251 kts | 100° |
| 2026-05-07 05:28 | 51.42397 | -0.25742 | 3280 ft | 257 kts | 100° |
| 2026-05-07 05:28 | 51.42024 | -0.22923 | 3991 ft | 262 kts | 100° |
| 2026-05-07 05:29 | 51.41639 | -0.20045 | 4720 ft | 266 kts | 100° |
| 2026-05-07 05:29 | 51.41241 | -0.17104 | 5399 ft | 272 kts | 101° |
| 2026-05-07 05:29 | 51.40834 | -0.14128 | 6151 ft | 275 kts | 101° |
| 2026-05-07 05:29 | 51.40418 | -0.11117 | 6832 ft | 279 kts | 101° |
| 2026-05-07 05:30 | 51.40001 | -0.08106 | 7565 ft | 282 kts | 101° |
| 2026-05-07 05:30 | 51.39575 | -0.05030 | 8278 ft | 284 kts | 101° |
| 2026-05-07 05:30 | 51.39143 | -0.01923 | 8993 ft | 288 kts | 101° |
| 2026-05-07 05:30 | 51.38802 | 0.00534 | 9507 ft | 290 kts | 102° |
| 2026-05-07 05:31 | 51.38394 | 0.03469 | 10206 ft | 291 kts | 102° |
| 2026-05-07 05:31 | 51.37941 | 0.06712 | 10469 ft | 309 kts | 102° |
| 2026-05-07 05:31 | 51.37463 | 0.10124 | 10641 ft | 327 kts | 102° |
| 2026-05-07 05:31 | 51.36945 | 0.13817 | 10897 ft | 342 kts | 102° |
| 2026-05-07 05:32 | 51.36428 | 0.17498 | 11466 ft | 345 kts | 102° |
| 2026-05-07 05:32 | 51.35897 | 0.21262 | 12048 ft | 348 kts | 102° |
| 2026-05-07 05:32 | 51.35361 | 0.25056 | 12640 ft | 351 kts | 102° |
| 2026-05-07 05:32 | 51.34819 | 0.28882 | 13227 ft | 354 kts | 103° |
| 2026-05-07 05:33 | 51.34271 | 0.32744 | 13699 ft | 358 kts | 103° |
| 2026-05-07 05:33 | 51.33717 | 0.36634 | 14216 ft | 361 kts | 103° |
| 2026-05-07 05:33 | 51.33156 | 0.40562 | 14741 ft | 363 kts | 103° |
| 2026-05-07 05:33 | 51.32590 | 0.44520 | 15264 ft | 366 kts | 103° |
| 2026-05-07 05:34 | 51.32019 | 0.48497 | 15776 ft | 369 kts | 103° |
| 2026-05-07 05:34 | 51.31443 | 0.52505 | 16281 ft | 372 kts | 103° |
| 2026-05-07 05:34 | 51.30867 | 0.56503 | 16785 ft | 375 kts | 103° |
| 2026-05-07 05:34 | 51.30261 | 0.60566 | 17295 ft | 377 kts | 106° |
| 2026-05-07 05:35 | 51.29516 | 0.64593 | 17792 ft | 380 kts | 107° |
| 2026-05-07 05:35 | 51.28768 | 0.68661 | 18273 ft | 383 kts | 106° |
| 2026-05-07 05:35 | 51.28018 | 0.72764 | 18703 ft | 386 kts | 106° |
| 2026-05-07 05:35 | 51.27264 | 0.76887 | 19135 ft | 388 kts | 106° |
| 2026-05-07 05:36 | 51.26503 | 0.81039 | 19552 ft | 391 kts | 106° |
| 2026-05-07 05:36 | 51.25736 | 0.85208 | 19973 ft | 393 kts | 107° |
| 2026-05-07 05:36 | 51.24972 | 0.89351 | 20421 ft | 396 kts | 107° |
| 2026-05-07 05:36 | 51.24179 | 0.93639 | 20810 ft | 399 kts | 107° |
| 2026-05-07 05:37 | 51.23392 | 0.97884 | 21221 ft | 401 kts | 107° |
| 2026-05-07 05:37 | 51.22596 | 1.02167 | 21603 ft | 404 kts | 107° |
| 2026-05-07 05:37 | 51.21794 | 1.06470 | 21976 ft | 407 kts | 107° |
| 2026-05-07 05:37 | 51.20985 | 1.10804 | 22376 ft | 409 kts | 107° |
| 2026-05-07 05:38 | 51.20169 | 1.15169 | 22754 ft | 411 kts | 107° |
| 2026-05-07 05:38 | 51.19359 | 1.19487 | 23127 ft | 414 kts | 107° |
| 2026-05-07 05:38 | 51.18531 | 1.23892 | 23508 ft | 417 kts | 107° |
| 2026-05-07 05:38 | 51.17694 | 1.28333 | 23840 ft | 419 kts | 107° |
| 2026-05-07 05:39 | 51.16852 | 1.32792 | 24174 ft | 421 kts | 106° |
| 2026-05-07 05:39 | 51.16220 | 1.37317 | 24487 ft | 423 kts | 98° |
| 2026-05-07 05:39 | 51.15953 | 1.42032 | 24807 ft | 425 kts | 94° |
| 2026-05-07 05:39 | 51.15751 | 1.46743 | 25148 ft | 428 kts | 94° |
| 2026-05-07 05:40 | 51.15528 | 1.51476 | 25474 ft | 430 kts | 94° |
| 2026-05-07 05:40 | 51.15297 | 1.56232 | 25827 ft | 432 kts | 94° |
| 2026-05-07 05:40 | 51.15061 | 1.61014 | 26175 ft | 434 kts | 94° |
| 2026-05-07 05:40 | 51.14826 | 1.65757 | 26548 ft | 436 kts | 95° |
| 2026-05-07 05:41 | 51.14585 | 1.70590 | 26928 ft | 439 kts | 95° |
| 2026-05-07 05:41 | 51.14341 | 1.75447 | 27310 ft | 441 kts | 95° |
| 2026-05-07 05:41 | 51.14094 | 1.80329 | 27699 ft | 444 kts | 95° |
| 2026-05-07 05:41 | 51.13844 | 1.85241 | 28090 ft | 447 kts | 95° |
| 2026-05-07 05:42 | 51.13589 | 1.90190 | 28479 ft | 449 kts | 95° |
| 2026-05-07 05:42 | 51.13332 | 1.95160 | 28878 ft | 452 kts | 95° |
| 2026-05-07 05:42 | 51.13071 | 2.00154 | 29260 ft | 455 kts | 95° |
| 2026-05-07 05:42 | 51.12806 | 2.05183 | 29666 ft | 457 kts | 95° |
| 2026-05-07 05:43 | 51.12537 | 2.10229 | 30052 ft | 460 kts | 95° |
| 2026-05-07 05:43 | 51.12267 | 2.15271 | 30398 ft | 463 kts | 95° |
| 2026-05-07 05:43 | 51.11992 | 2.20377 | 30764 ft | 465 kts | 95° |
| 2026-05-07 05:43 | 51.11712 | 2.25511 | 31113 ft | 467 kts | 95° |
| 2026-05-07 05:44 | 51.11429 | 2.30666 | 31464 ft | 469 kts | 95° |
| 2026-05-07 05:44 | 51.11142 | 2.35854 | 31807 ft | 472 kts | 95° |
| 2026-05-07 05:44 | 51.10850 | 2.41070 | 32143 ft | 474 kts | 95° |
| 2026-05-07 05:44 | 51.10556 | 2.46295 | 32492 ft | 476 kts | 95° |
| 2026-05-07 05:45 | 51.10258 | 2.51557 | 32830 ft | 478 kts | 95° |
| 2026-05-07 05:45 | 51.09956 | 2.56842 | 33160 ft | 481 kts | 95° |
| 2026-05-07 05:45 | 51.09640 | 2.62148 | 33494 ft | 483 kts | 97° |
| 2026-05-07 05:45 | 51.09057 | 2.67418 | 33816 ft | 486 kts | 104° |
| 2026-05-07 05:46 | 51.08154 | 2.72527 | 34131 ft | 487 kts | 107° |
| 2026-05-07 05:46 | 51.07195 | 2.77725 | 34384 ft | 490 kts | 106° |
| 2026-05-07 05:46 | 51.06251 | 2.82936 | 34682 ft | 492 kts | 106° |
| 2026-05-07 05:46 | 51.05305 | 2.88162 | 34997 ft | 493 kts | 106° |
| 2026-05-07 05:47 | 51.04345 | 2.93446 | 35043 ft | 500 kts | 106° |
| 2026-05-07 05:47 | 51.02422 | 3.03962 | 35039 ft | 495 kts | 106° |
| 2026-05-07 05:48 | 51.00488 | 3.14464 | 35030 ft | 496 kts | 107° |
| 2026-05-07 05:48 | 50.98556 | 3.24897 | 35024 ft | 496 kts | 107° |
| 2026-05-07 05:49 | 50.96602 | 3.35382 | 35021 ft | 495 kts | 107° |
| 2026-05-07 05:49 | 50.94642 | 3.45846 | 35015 ft | 494 kts | 107° |
| 2026-05-07 05:50 | 50.92675 | 3.56288 | 35011 ft | 494 kts | 107° |
| 2026-05-07 05:50 | 50.90698 | 3.66722 | 35009 ft | 494 kts | 107° |
| 2026-05-07 05:51 | 50.88729 | 3.77063 | 35012 ft | 494 kts | 107° |
| 2026-05-07 05:51 | 50.86737 | 3.87459 | 35014 ft | 494 kts | 107° |
| 2026-05-07 05:52 | 50.84734 | 3.97859 | 35015 ft | 494 kts | 107° |
| 2026-05-07 05:52 | 50.82720 | 4.08259 | 35017 ft | 494 kts | 107° |
| 2026-05-07 05:53 | 50.80696 | 4.18656 | 35021 ft | 495 kts | 107° |
| 2026-05-07 05:53 | 50.78675 | 4.28978 | 35024 ft | 495 kts | 107° |
| 2026-05-07 05:54 | 50.76634 | 4.39346 | 35018 ft | 495 kts | 107° |
| 2026-05-07 05:54 | 50.74580 | 4.49726 | 35017 ft | 494 kts | 107° |
| 2026-05-07 05:55 | 50.72521 | 4.60076 | 35018 ft | 494 kts | 107° |
| 2026-05-07 05:55 | 50.70455 | 4.70407 | 35015 ft | 494 kts | 107° |
| 2026-05-07 05:56 | 50.68383 | 4.80713 | 35014 ft | 493 kts | 107° |
| 2026-05-07 05:56 | 50.66265 | 4.90926 | 35012 ft | 493 kts | 111° |
| 2026-05-07 05:57 | 50.63408 | 5.00739 | 35013 ft | 493 kts | 115° |
| 2026-05-07 05:57 | 50.60479 | 5.10477 | 35009 ft | 493 kts | 115° |
| 2026-05-07 05:58 | 50.57539 | 5.20231 | 35009 ft | 493 kts | 115° |
| 2026-05-07 05:58 | 50.54611 | 5.29887 | 35017 ft | 493 kts | 115° |
| 2026-05-07 05:59 | 50.51649 | 5.39608 | 35016 ft | 493 kts | 115° |
| 2026-05-07 05:59 | 50.48677 | 5.49322 | 35012 ft | 493 kts | 116° |
| 2026-05-07 06:00 | 50.45698 | 5.59023 | 35008 ft | 493 kts | 116° |
| 2026-05-07 06:00 | 50.42730 | 5.68646 | 35001 ft | 494 kts | 116° |
| 2026-05-07 06:01 | 50.39732 | 5.78332 | 34997 ft | 494 kts | 116° |
| 2026-05-07 06:01 | 50.36728 | 5.88000 | 34985 ft | 494 kts | 116° |
| 2026-05-07 06:02 | 50.33707 | 5.97682 | 34981 ft | 494 kts | 116° |
| 2026-05-07 06:02 | 50.30682 | 6.07338 | 34977 ft | 495 kts | 116° |
| 2026-05-07 06:03 | 50.27647 | 6.16990 | 34969 ft | 495 kts | 116° |
| 2026-05-07 06:03 | 50.24616 | 6.26589 | 34967 ft | 496 kts | 116° |
| 2026-05-07 06:04 | 50.21559 | 6.36237 | 34963 ft | 496 kts | 117° |
| 2026-05-07 06:04 | 50.18253 | 6.45673 | 34959 ft | 495 kts | 124° |
| 2026-05-07 06:05 | 50.13966 | 6.54062 | 34958 ft | 494 kts | 131° |
| 2026-05-07 06:05 | 50.09532 | 6.62244 | 34982 ft | 494 kts | 130° |
| 2026-05-07 06:06 | 50.05128 | 6.70384 | 34989 ft | 494 kts | 131° |
| 2026-05-07 06:06 | 50.00695 | 6.78543 | 34986 ft | 493 kts | 131° |
| 2026-05-07 06:07 | 49.96263 | 6.86670 | 34981 ft | 493 kts | 131° |
| 2026-05-07 06:07 | 49.91823 | 6.94785 | 34963 ft | 493 kts | 131° |
| 2026-05-07 06:08 | 49.87385 | 7.02873 | 34960 ft | 492 kts | 131° |
| 2026-05-07 06:08 | 49.82972 | 7.10891 | 34960 ft | 492 kts | 131° |
| 2026-05-07 06:09 | 49.78527 | 7.18939 | 34958 ft | 492 kts | 131° |
| 2026-05-07 06:09 | 49.74077 | 7.26973 | 34956 ft | 492 kts | 131° |
| 2026-05-07 06:10 | 49.69656 | 7.34931 | 34954 ft | 491 kts | 131° |
| 2026-05-07 06:10 | 49.65198 | 7.42931 | 34956 ft | 491 kts | 131° |
| 2026-05-07 06:11 | 49.60739 | 7.50908 | 34959 ft | 491 kts | 131° |
| 2026-05-07 06:11 | 49.56268 | 7.58882 | 34961 ft | 491 kts | 131° |
| 2026-05-07 06:12 | 49.51805 | 7.66819 | 34957 ft | 491 kts | 131° |
| 2026-05-07 06:12 | 49.47358 | 7.74700 | 34956 ft | 491 kts | 131° |
| 2026-05-07 06:13 | 49.42878 | 7.82619 | 34955 ft | 491 kts | 132° |
| 2026-05-07 06:13 | 49.38391 | 7.90525 | 34954 ft | 491 kts | 132° |
| 2026-05-07 06:14 | 49.33900 | 7.98414 | 34952 ft | 491 kts | 132° |
| 2026-05-07 06:14 | 49.29406 | 8.06285 | 34951 ft | 491 kts | 132° |
| 2026-05-07 06:15 | 49.24924 | 8.14108 | 34953 ft | 491 kts | 132° |
| 2026-05-07 06:15 | 49.20412 | 8.21963 | 34955 ft | 492 kts | 132° |
| 2026-05-07 06:16 | 49.15896 | 8.29802 | 34969 ft | 492 kts | 133° |
| 2026-05-07 06:16 | 49.11368 | 8.37637 | 34971 ft | 492 kts | 133° |
| 2026-05-07 06:17 | 49.06823 | 8.45478 | 34984 ft | 495 kts | 133° |
| 2026-05-07 06:17 | 49.02282 | 8.53290 | 34994 ft | 496 kts | 133° |
| 2026-05-07 06:18 | 48.97435 | 8.60715 | 34994 ft | 493 kts | 142° |
| 2026-05-07 06:18 | 48.92055 | 8.67169 | 34981 ft | 492 kts | 143° |
| 2026-05-07 06:19 | 48.86699 | 8.73625 | 34971 ft | 491 kts | 143° |
| 2026-05-07 06:19 | 48.82264 | 8.78964 | 34964 ft | 490 kts | 143° |
| 2026-05-07 06:20 | 48.76055 | 8.86412 | 34951 ft | 489 kts | 143° |
| 2026-05-07 06:20 | 48.70717 | 8.92796 | 34937 ft | 488 kts | 143° |
| 2026-05-07 06:21 | 48.66285 | 8.98082 | 34954 ft | 488 kts | 143° |
| 2026-05-07 06:21 | 48.60959 | 9.04417 | 34952 ft | 487 kts | 143° |
| 2026-05-07 06:22 | 48.55621 | 9.10750 | 34951 ft | 488 kts | 143° |
| 2026-05-07 06:22 | 48.47606 | 9.20224 | 34941 ft | 488 kts | 144° |
| 2026-05-07 06:23 | 48.42295 | 9.26481 | 34951 ft | 488 kts | 144° |
| 2026-05-07 06:23 | 48.36939 | 9.32775 | 34957 ft | 489 kts | 144° |
| 2026-05-07 06:24 | 48.31567 | 9.39071 | 34960 ft | 489 kts | 144° |
| 2026-05-07 06:24 | 48.26191 | 9.45353 | 34969 ft | 490 kts | 144° |
| 2026-05-07 06:25 | 48.20934 | 9.51879 | 34971 ft | 492 kts | 141° |
| 2026-05-07 06:25 | 48.15839 | 9.58625 | 34973 ft | 492 kts | 141° |
| 2026-05-07 06:26 | 48.10671 | 9.65356 | 34974 ft | 492 kts | 141° |
| 2026-05-07 06:26 | 48.05780 | 9.71661 | 34976 ft | 492 kts | 142° |
| 2026-05-07 06:27 | 48.00595 | 9.78319 | 34974 ft | 491 kts | 142° |
| 2026-05-07 06:27 | 47.95412 | 9.84957 | 34993 ft | 492 kts | 142° |
| 2026-05-07 06:28 | 47.90253 | 9.91548 | 34994 ft | 491 kts | 142° |
| 2026-05-07 06:28 | 47.85201 | 9.98402 | 34986 ft | 493 kts | 135° |
| 2026-05-07 06:29 | 47.81091 | 10.06627 | 34982 ft | 498 kts | 123° |
| 2026-05-07 06:29 | 47.77634 | 10.15565 | 34978 ft | 498 kts | 123° |
| 2026-05-07 06:30 | 47.74164 | 10.24395 | 34977 ft | 498 kts | 123° |
| 2026-05-07 06:30 | 47.70654 | 10.33276 | 34981 ft | 498 kts | 124° |
| 2026-05-07 06:31 | 47.67138 | 10.42143 | 34976 ft | 499 kts | 124° |
| 2026-05-07 06:31 | 47.63618 | 10.50998 | 34986 ft | 499 kts | 124° |
| 2026-05-07 06:32 | 47.60081 | 10.59864 | 34985 ft | 499 kts | 124° |
| 2026-05-07 06:32 | 47.56566 | 10.68644 | 34985 ft | 499 kts | 125° |
| 2026-05-07 06:33 | 47.53025 | 10.77464 | 34980 ft | 497 kts | 125° |
| 2026-05-07 06:33 | 47.49482 | 10.86261 | 34984 ft | 497 kts | 125° |
| 2026-05-07 06:34 | 47.45937 | 10.95030 | 34972 ft | 497 kts | 125° |
| 2026-05-07 06:34 | 47.42390 | 11.03775 | 34977 ft | 495 kts | 126° |
| 2026-05-07 06:35 | 47.38869 | 11.12435 | 34978 ft | 495 kts | 126° |
| 2026-05-07 06:35 | 47.35311 | 11.21149 | 34986 ft | 496 kts | 126° |
| 2026-05-07 06:36 | 47.31745 | 11.29858 | 34984 ft | 496 kts | 126° |
| 2026-05-07 06:36 | 47.28183 | 11.38525 | 34990 ft | 495 kts | 126° |
| 2026-05-07 06:37 | 47.24612 | 11.47195 | 34993 ft | 495 kts | 126° |
| 2026-05-07 06:37 | 47.21060 | 11.55791 | 34997 ft | 495 kts | 127° |
| 2026-05-07 06:38 | 47.17477 | 11.64431 | 34995 ft | 495 kts | 127° |
| 2026-05-07 06:38 | 47.13884 | 11.73073 | 34998 ft | 495 kts | 127° |
| 2026-05-07 06:39 | 47.10286 | 11.81693 | 35008 ft | 494 kts | 127° |
| 2026-05-07 06:39 | 47.06859 | 11.90477 | 34995 ft | 499 kts | 122° |
| 2026-05-07 06:40 | 47.03858 | 11.99547 | 34973 ft | 498 kts | 122° |
| 2026-05-07 06:40 | 47.00820 | 12.08669 | 34985 ft | 497 kts | 122° |
| 2026-05-07 06:41 | 46.97770 | 12.17758 | 34994 ft | 497 kts | 122° |
| 2026-05-07 06:41 | 46.94710 | 12.26831 | 35019 ft | 497 kts | 122° |
| 2026-05-07 06:42 | 46.91663 | 12.35838 | 35025 ft | 497 kts | 123° |
| 2026-05-07 06:42 | 46.88588 | 12.44885 | 35005 ft | 496 kts | 123° |
| 2026-05-07 06:43 | 46.85522 | 12.53885 | 34979 ft | 494 kts | 123° |
| 2026-05-07 06:43 | 46.82463 | 12.62829 | 34976 ft | 492 kts | 123° |
| 2026-05-07 06:44 | 46.79397 | 12.71763 | 34954 ft | 493 kts | 123° |
| 2026-05-07 06:44 | 46.76349 | 12.80615 | 34958 ft | 491 kts | 123° |
| 2026-05-07 06:45 | 46.73273 | 12.89512 | 34960 ft | 492 kts | 123° |
| 2026-05-07 06:45 | 46.70188 | 12.98416 | 34968 ft | 492 kts | 123° |
| 2026-05-07 06:46 | 46.67089 | 13.07323 | 34984 ft | 494 kts | 123° |
| 2026-05-07 06:46 | 46.63980 | 13.16232 | 34989 ft | 494 kts | 124° |
| 2026-05-07 06:47 | 46.60884 | 13.25077 | 35000 ft | 493 kts | 124° |
| 2026-05-07 06:47 | 46.57720 | 13.33894 | 34982 ft | 488 kts | 128° |
| 2026-05-07 06:48 | 46.53778 | 13.41729 | 34976 ft | 474 kts | 139° |
| 2026-05-07 06:48 | 46.49170 | 13.48508 | 34970 ft | 471 kts | 141° |
| 2026-05-07 06:49 | 46.44593 | 13.55230 | 34963 ft | 472 kts | 141° |
| 2026-05-07 06:49 | 46.39984 | 13.61994 | 34963 ft | 472 kts | 141° |
| 2026-05-07 06:50 | 46.35397 | 13.68709 | 34966 ft | 473 kts | 142° |
| 2026-05-07 06:50 | 46.30750 | 13.75488 | 34965 ft | 474 kts | 142° |
| 2026-05-07 06:51 | 46.26109 | 13.82238 | 34970 ft | 472 kts | 142° |
| 2026-05-07 06:51 | 46.21498 | 13.88919 | 34968 ft | 474 kts | 142° |
| 2026-05-07 06:52 | 46.16834 | 13.95664 | 34968 ft | 475 kts | 142° |
| 2026-05-07 06:52 | 46.12155 | 14.02416 | 34981 ft | 477 kts | 142° |
| 2026-05-07 06:53 | 46.07452 | 14.09180 | 35193 ft | 480 kts | 142° |
| 2026-05-07 06:53 | 46.05084 | 14.12581 | 35552 ft | 481 kts | 141° |
| 2026-05-07 06:53 | 46.02742 | 14.15941 | 35890 ft | 483 kts | 141° |
| 2026-05-07 06:54 | 46.00363 | 14.19350 | 36234 ft | 483 kts | 141° |
| 2026-05-07 06:54 | 45.97978 | 14.22764 | 36572 ft | 484 kts | 141° |
| 2026-05-07 06:54 | 45.95583 | 14.26186 | 36870 ft | 486 kts | 141° |
| 2026-05-07 06:54 | 45.93175 | 14.29620 | 36978 ft | 490 kts | 141° |
| 2026-05-07 06:55 | 45.88397 | 14.36433 | 36995 ft | 482 kts | 141° |
| 2026-05-07 06:55 | 45.83611 | 14.43228 | 36993 ft | 484 kts | 141° |
| 2026-05-07 06:56 | 45.78857 | 14.49966 | 36980 ft | 484 kts | 141° |
| 2026-05-07 06:56 | 45.74063 | 14.56744 | 36980 ft | 484 kts | 141° |
| 2026-05-07 06:57 | 45.69275 | 14.63494 | 36980 ft | 483 kts | 141° |
| 2026-05-07 06:57 | 45.64491 | 14.70222 | 36976 ft | 482 kts | 141° |
| 2026-05-07 06:58 | 45.59713 | 14.76926 | 36972 ft | 481 kts | 142° |
| 2026-05-07 06:58 | 45.54966 | 14.83568 | 36975 ft | 481 kts | 142° |
| 2026-05-07 06:59 | 45.50190 | 14.90232 | 36974 ft | 480 kts | 142° |
| 2026-05-07 06:59 | 45.45406 | 14.96892 | 36967 ft | 481 kts | 142° |
| 2026-05-07 07:00 | 45.40613 | 15.03546 | 36985 ft | 483 kts | 142° |
| 2026-05-07 07:00 | 45.35821 | 15.10184 | 36992 ft | 484 kts | 142° |
| 2026-05-07 07:01 | 45.30994 | 15.16856 | 36991 ft | 484 kts | 142° |
| 2026-05-07 07:01 | 45.26157 | 15.23522 | 36988 ft | 485 kts | 142° |
| 2026-05-07 07:02 | 45.21313 | 15.30184 | 36990 ft | 485 kts | 142° |
| 2026-05-07 07:02 | 45.16458 | 15.36842 | 36987 ft | 486 kts | 142° |
| 2026-05-07 07:03 | 45.11597 | 15.43493 | 36988 ft | 486 kts | 142° |
| 2026-05-07 07:03 | 45.06758 | 15.50096 | 36988 ft | 487 kts | 142° |
| 2026-05-07 07:04 | 45.01873 | 15.56744 | 36991 ft | 487 kts | 142° |
| 2026-05-07 07:04 | 44.97017 | 15.63335 | 36996 ft | 488 kts | 142° |
| 2026-05-07 07:05 | 44.92108 | 15.69986 | 36998 ft | 489 kts | 142° |
| 2026-05-07 07:05 | 44.87226 | 15.76584 | 37023 ft | 489 kts | 142° |
| 2026-05-07 07:06 | 44.82328 | 15.83186 | 37024 ft | 489 kts | 141° |
| 2026-05-07 07:06 | 44.77441 | 15.89757 | 37020 ft | 489 kts | 141° |
| 2026-05-07 07:07 | 44.72530 | 15.96346 | 37020 ft | 488 kts | 141° |
| 2026-05-07 07:07 | 44.67629 | 16.02909 | 37000 ft | 486 kts | 142° |
| 2026-05-07 07:08 | 44.62764 | 16.09394 | 36991 ft | 485 kts | 142° |
| 2026-05-07 07:08 | 44.57873 | 16.15906 | 36994 ft | 485 kts | 142° |
| 2026-05-07 07:09 | 44.52970 | 16.22418 | 36996 ft | 485 kts | 142° |
| 2026-05-07 07:09 | 44.48072 | 16.28907 | 37005 ft | 485 kts | 142° |
| 2026-05-07 07:10 | 44.43202 | 16.35346 | 37006 ft | 485 kts | 141° |
| 2026-05-07 07:10 | 44.38295 | 16.41816 | 37013 ft | 485 kts | 141° |
| 2026-05-07 07:11 | 44.33376 | 16.48285 | 37017 ft | 486 kts | 141° |
| 2026-05-07 07:11 | 44.28453 | 16.54743 | 37022 ft | 485 kts | 141° |
| 2026-05-07 07:12 | 44.23541 | 16.61172 | 37028 ft | 484 kts | 141° |
| 2026-05-07 07:12 | 44.18625 | 16.67592 | 37022 ft | 483 kts | 141° |
| 2026-05-07 07:13 | 44.13757 | 16.73935 | 37026 ft | 482 kts | 141° |
| 2026-05-07 07:13 | 44.08855 | 16.80306 | 37032 ft | 482 kts | 141° |
| 2026-05-07 07:14 | 44.03944 | 16.86672 | 37031 ft | 482 kts | 141° |
| 2026-05-07 07:14 | 43.99037 | 16.93018 | 37035 ft | 483 kts | 141° |
| 2026-05-07 07:15 | 43.94139 | 16.99338 | 37046 ft | 484 kts | 141° |
| 2026-05-07 07:15 | 43.89202 | 17.05693 | 37066 ft | 485 kts | 141° |
| 2026-05-07 07:16 | 43.84251 | 17.12052 | 37062 ft | 486 kts | 141° |
| 2026-05-07 07:16 | 43.79299 | 17.18397 | 37072 ft | 485 kts | 141° |
| 2026-05-07 07:17 | 43.74337 | 17.24739 | 37072 ft | 485 kts | 141° |
| 2026-05-07 07:17 | 43.69418 | 17.31013 | 37071 ft | 485 kts | 141° |
| 2026-05-07 07:18 | 43.64454 | 17.37326 | 37090 ft | 485 kts | 141° |
| 2026-05-07 07:18 | 43.59479 | 17.43641 | 37096 ft | 485 kts | 142° |
| 2026-05-07 07:19 | 43.54506 | 17.49938 | 37097 ft | 485 kts | 141° |
| 2026-05-07 07:19 | 43.49532 | 17.56222 | 37096 ft | 484 kts | 142° |
| 2026-05-07 07:20 | 43.44605 | 17.62433 | 37093 ft | 483 kts | 142° |
| 2026-05-07 07:20 | 43.39641 | 17.68677 | 37092 ft | 482 kts | 142° |
| 2026-05-07 07:21 | 43.34691 | 17.74892 | 37097 ft | 482 kts | 142° |
| 2026-05-07 07:21 | 43.29728 | 17.81112 | 37113 ft | 484 kts | 142° |
| 2026-05-07 07:22 | 43.24710 | 17.87245 | 37108 ft | 481 kts | 144° |
| 2026-05-07 07:22 | 43.19654 | 17.93165 | 37101 ft | 480 kts | 143° |
| 2026-05-07 07:23 | 43.14616 | 17.99151 | 37095 ft | 479 kts | 143° |
| 2026-05-07 07:23 | 43.09566 | 18.05109 | 37090 ft | 478 kts | 143° |
| 2026-05-07 07:24 | 43.04548 | 18.10999 | 37100 ft | 478 kts | 143° |
| 2026-05-07 07:24 | 42.99495 | 18.16914 | 37097 ft | 479 kts | 143° |
| 2026-05-07 07:25 | 42.91900 | 18.25773 | 37111 ft | 478 kts | 143° |
| 2026-05-07 07:26 | 42.86839 | 18.31664 | 37107 ft | 478 kts | 144° |
| 2026-05-07 07:26 | 42.81777 | 18.37542 | 37109 ft | 477 kts | 144° |
| 2026-05-07 07:27 | 42.76758 | 18.43356 | 37102 ft | 477 kts | 144° |
| 2026-05-07 07:27 | 42.71699 | 18.49204 | 37105 ft | 477 kts | 144° |
| 2026-05-07 07:28 | 42.66631 | 18.55049 | 37106 ft | 478 kts | 144° |
| 2026-05-07 07:28 | 42.61565 | 18.60880 | 37130 ft | 478 kts | 144° |
| 2026-05-07 07:29 | 42.56517 | 18.66677 | 37140 ft | 479 kts | 144° |
| 2026-05-07 07:29 | 42.51431 | 18.72503 | 37157 ft | 480 kts | 144° |
| 2026-05-07 07:30 | 42.46315 | 18.78351 | 37180 ft | 481 kts | 144° |
| 2026-05-07 07:30 | 42.41195 | 18.84193 | 37180 ft | 481 kts | 144° |
| 2026-05-07 07:31 | 42.36069 | 18.90026 | 37172 ft | 481 kts | 144° |
| 2026-05-07 07:31 | 42.30979 | 18.95808 | 37155 ft | 481 kts | 144° |
| 2026-05-07 07:32 | 42.25853 | 19.01618 | 37152 ft | 481 kts | 144° |
| 2026-05-07 07:32 | 42.20721 | 19.07419 | 37149 ft | 481 kts | 144° |
| 2026-05-07 07:33 | 42.15591 | 19.13206 | 37140 ft | 481 kts | 144° |
| 2026-05-07 07:33 | 42.10485 | 19.18958 | 37141 ft | 481 kts | 144° |
| 2026-05-07 07:34 | 42.05346 | 19.24732 | 37133 ft | 482 kts | 144° |
| 2026-05-07 07:34 | 42.00197 | 19.30501 | 37122 ft | 482 kts | 144° |
| 2026-05-07 07:35 | 41.95038 | 19.36270 | 37126 ft | 483 kts | 144° |
| 2026-05-07 07:35 | 41.89905 | 19.41998 | 37136 ft | 484 kts | 144° |
| 2026-05-07 07:36 | 41.84722 | 19.47770 | 37133 ft | 483 kts | 144° |
| 2026-05-07 07:36 | 41.79552 | 19.53515 | 37133 ft | 483 kts | 144° |
| 2026-05-07 07:37 | 41.74376 | 19.59254 | 37133 ft | 483 kts | 144° |
| 2026-05-07 07:37 | 41.69226 | 19.64952 | 37149 ft | 484 kts | 144° |
| 2026-05-07 07:38 | 41.64031 | 19.70687 | 37158 ft | 484 kts | 144° |
| 2026-05-07 07:38 | 41.58828 | 19.76419 | 37176 ft | 485 kts | 145° |
| 2026-05-07 07:39 | 41.53616 | 19.82146 | 37183 ft | 486 kts | 145° |
| 2026-05-07 07:39 | 41.48398 | 19.87872 | 37181 ft | 486 kts | 145° |
| 2026-05-07 07:40 | 41.43211 | 19.93549 | 37176 ft | 486 kts | 145° |
| 2026-05-07 07:40 | 41.37986 | 19.99256 | 37178 ft | 486 kts | 145° |
| 2026-05-07 07:41 | 41.32757 | 20.04954 | 37164 ft | 486 kts | 145° |
| 2026-05-07 07:41 | 41.27521 | 20.10648 | 37180 ft | 486 kts | 145° |
| 2026-05-07 07:42 | 41.22324 | 20.16288 | 37172 ft | 485 kts | 145° |
| 2026-05-07 07:42 | 41.17103 | 20.21943 | 37168 ft | 485 kts | 145° |
| 2026-05-07 07:43 | 41.11868 | 20.27599 | 37178 ft | 485 kts | 145° |
| 2026-05-07 07:43 | 41.06634 | 20.33242 | 37169 ft | 485 kts | 145° |
| 2026-05-07 07:44 | 41.01400 | 20.38878 | 37161 ft | 484 kts | 146° |
| 2026-05-07 07:44 | 40.96204 | 20.44455 | 37160 ft | 484 kts | 146° |
| 2026-05-07 07:45 | 40.90978 | 20.50051 | 37162 ft | 484 kts | 146° |
| 2026-05-07 07:45 | 40.85729 | 20.55663 | 37140 ft | 485 kts | 146° |
| 2026-05-07 07:46 | 40.80485 | 20.61257 | 37147 ft | 486 kts | 146° |
| 2026-05-07 07:46 | 40.75208 | 20.66877 | 37158 ft | 488 kts | 146° |
| 2026-05-07 07:47 | 40.69954 | 20.72460 | 37172 ft | 490 kts | 146° |
| 2026-05-07 07:47 | 40.64629 | 20.78107 | 37171 ft | 491 kts | 146° |
| 2026-05-07 07:48 | 40.59297 | 20.83749 | 37170 ft | 492 kts | 146° |
| 2026-05-07 07:48 | 40.53958 | 20.89392 | 37171 ft | 492 kts | 146° |
| 2026-05-07 07:49 | 40.48614 | 20.95031 | 37165 ft | 493 kts | 146° |
| 2026-05-07 07:49 | 40.43341 | 21.00699 | 37158 ft | 493 kts | 144° |
| 2026-05-07 07:50 | 40.38091 | 21.06467 | 37134 ft | 493 kts | 144° |
| 2026-05-07 07:50 | 40.32828 | 21.12234 | 37150 ft | 493 kts | 144° |
| 2026-05-07 07:51 | 40.27587 | 21.17955 | 37135 ft | 494 kts | 144° |
| 2026-05-07 07:51 | 40.22286 | 21.23725 | 37143 ft | 497 kts | 144° |
| 2026-05-07 07:52 | 40.16959 | 21.29512 | 37157 ft | 499 kts | 144° |
| 2026-05-07 07:52 | 40.11599 | 21.35323 | 37160 ft | 502 kts | 144° |
| 2026-05-07 07:53 | 40.06218 | 21.41141 | 37164 ft | 503 kts | 144° |
| 2026-05-07 07:53 | 40.00819 | 21.46963 | 37157 ft | 503 kts | 144° |
| 2026-05-07 07:54 | 39.95455 | 21.52734 | 37147 ft | 504 kts | 144° |
| 2026-05-07 07:54 | 39.90047 | 21.58542 | 37139 ft | 504 kts | 144° |
| 2026-05-07 07:55 | 39.84633 | 21.64343 | 37123 ft | 504 kts | 144° |
| 2026-05-07 07:55 | 39.79214 | 21.70135 | 37115 ft | 505 kts | 144° |
| 2026-05-07 07:56 | 39.73823 | 21.75887 | 37116 ft | 506 kts | 144° |
| 2026-05-07 07:56 | 39.68360 | 21.81702 | 37121 ft | 508 kts | 145° |
| 2026-05-07 07:57 | 39.62899 | 21.87505 | 37111 ft | 508 kts | 145° |
| 2026-05-07 07:57 | 39.57427 | 21.93305 | 37113 ft | 509 kts | 145° |
| 2026-05-07 07:58 | 39.51944 | 21.99107 | 37108 ft | 509 kts | 145° |
| 2026-05-07 07:58 | 39.46484 | 22.04873 | 37111 ft | 510 kts | 145° |
| 2026-05-07 07:59 | 39.40985 | 22.10666 | 37116 ft | 511 kts | 145° |
| 2026-05-07 07:59 | 39.35468 | 22.16466 | 37110 ft | 511 kts | 145° |
| 2026-05-07 08:00 | 39.29954 | 22.22251 | 37111 ft | 511 kts | 145° |
| 2026-05-07 08:00 | 39.24422 | 22.28042 | 37109 ft | 512 kts | 145° |
| 2026-05-07 08:01 | 39.18922 | 22.33788 | 37109 ft | 513 kts | 145° |
| 2026-05-07 08:01 | 39.13374 | 22.39572 | 37105 ft | 514 kts | 145° |
| 2026-05-07 08:02 | 39.07809 | 22.45362 | 37096 ft | 515 kts | 145° |
| 2026-05-07 08:02 | 39.02226 | 22.51157 | 37095 ft | 516 kts | 145° |
| 2026-05-07 08:03 | 38.96667 | 22.56918 | 37091 ft | 517 kts | 145° |
| 2026-05-07 08:03 | 38.91059 | 22.62716 | 37115 ft | 518 kts | 145° |
| 2026-05-07 08:04 | 38.85437 | 22.68516 | 37109 ft | 519 kts | 145° |
| 2026-05-07 08:04 | 38.79810 | 22.74309 | 37111 ft | 519 kts | 145° |
| 2026-05-07 08:05 | 38.74203 | 22.80070 | 37106 ft | 520 kts | 145° |
| 2026-05-07 08:05 | 38.68559 | 22.85857 | 37109 ft | 521 kts | 145° |
| 2026-05-07 08:06 | 38.62930 | 22.91616 | 37115 ft | 523 kts | 145° |
| 2026-05-07 08:06 | 38.57236 | 22.97428 | 37116 ft | 524 kts | 145° |
| 2026-05-07 08:07 | 38.51525 | 23.03248 | 37120 ft | 525 kts | 145° |
| 2026-05-07 08:07 | 38.45841 | 23.09027 | 37119 ft | 526 kts | 146° |
| 2026-05-07 08:08 | 38.40106 | 23.14847 | 37116 ft | 527 kts | 146° |
| 2026-05-07 08:08 | 38.34355 | 23.20671 | 37117 ft | 529 kts | 146° |
| 2026-05-07 08:09 | 38.28585 | 23.26499 | 37120 ft | 530 kts | 146° |
| 2026-05-07 08:09 | 38.22805 | 23.32326 | 37124 ft | 531 kts | 146° |
| 2026-05-07 08:10 | 38.17040 | 23.38127 | 37125 ft | 532 kts | 146° |
| 2026-05-07 08:10 | 38.11227 | 23.43964 | 37137 ft | 533 kts | 146° |
| 2026-05-07 08:11 | 38.05415 | 23.49790 | 37132 ft | 534 kts | 146° |
| 2026-05-07 08:11 | 37.99601 | 23.55602 | 37129 ft | 535 kts | 146° |
| 2026-05-07 08:12 | 37.93753 | 23.61439 | 37129 ft | 536 kts | 146° |
| 2026-05-07 08:12 | 37.87897 | 23.67270 | 37127 ft | 537 kts | 146° |
| 2026-05-07 08:13 | 37.82016 | 23.73113 | 37121 ft | 538 kts | 146° |
| 2026-05-07 08:13 | 37.76121 | 23.78958 | 37124 ft | 539 kts | 146° |
| 2026-05-07 08:14 | 37.70244 | 23.84774 | 37127 ft | 541 kts | 146° |
| 2026-05-07 08:14 | 37.64314 | 23.90630 | 37129 ft | 542 kts | 146° |
| 2026-05-07 08:15 | 37.58355 | 23.96502 | 37147 ft | 544 kts | 146° |
| 2026-05-07 08:15 | 37.52376 | 24.02382 | 37152 ft | 546 kts | 146° |
| 2026-05-07 08:16 | 37.46420 | 24.08227 | 37153 ft | 547 kts | 146° |
| 2026-05-07 08:16 | 37.40404 | 24.14118 | 37151 ft | 549 kts | 146° |
| 2026-05-07 08:17 | 37.34368 | 24.20017 | 37145 ft | 550 kts | 146° |
| 2026-05-07 08:17 | 37.28314 | 24.25922 | 37147 ft | 551 kts | 147° |
| 2026-05-07 08:18 | 37.22247 | 24.31825 | 37144 ft | 552 kts | 147° |
| 2026-05-07 08:18 | 37.16213 | 24.37686 | 37138 ft | 553 kts | 147° |
| 2026-05-07 08:19 | 37.10129 | 24.43582 | 37137 ft | 554 kts | 147° |
| 2026-05-07 08:19 | 37.04027 | 24.49482 | 37141 ft | 555 kts | 147° |
| 2026-05-07 08:20 | 36.97908 | 24.55388 | 37139 ft | 556 kts | 147° |
| 2026-05-07 08:20 | 36.91818 | 24.61253 | 37141 ft | 557 kts | 147° |
| 2026-05-07 08:21 | 36.85675 | 24.67157 | 37140 ft | 558 kts | 147° |
| 2026-05-07 08:21 | 36.79509 | 24.73071 | 37141 ft | 560 kts | 147° |
| 2026-05-07 08:22 | 36.73324 | 24.78990 | 37143 ft | 561 kts | 146° |
| 2026-05-07 08:22 | 36.67159 | 24.84878 | 37150 ft | 562 kts | 146° |
| 2026-05-07 08:23 | 36.60938 | 24.90809 | 37161 ft | 564 kts | 146° |
| 2026-05-07 08:23 | 36.54698 | 24.96744 | 37164 ft | 565 kts | 146° |
| 2026-05-07 08:24 | 36.48447 | 25.02677 | 37157 ft | 565 kts | 146° |
| 2026-05-07 08:24 | 36.42235 | 25.08561 | 37159 ft | 565 kts | 146° |
| 2026-05-07 08:25 | 36.35973 | 25.14479 | 37157 ft | 566 kts | 146° |
| 2026-05-07 08:25 | 36.29714 | 25.20383 | 37158 ft | 566 kts | 146° |
| 2026-05-07 08:26 | 36.20311 | 25.29229 | 37153 ft | 566 kts | 146° |
| 2026-05-07 08:26 | 36.14069 | 25.35086 | 37152 ft | 566 kts | 146° |
| 2026-05-07 08:27 | 36.07784 | 25.40972 | 37150 ft | 567 kts | 146° |
| 2026-05-07 08:27 | 36.01488 | 25.46856 | 37150 ft | 568 kts | 146° |
| 2026-05-07 08:28 | 35.95180 | 25.52739 | 37152 ft | 569 kts | 146° |
| 2026-05-07 08:28 | 35.88902 | 25.58582 | 37157 ft | 570 kts | 146° |
| 2026-05-07 08:29 | 35.82573 | 25.64460 | 37159 ft | 570 kts | 146° |
| 2026-05-07 08:29 | 35.76223 | 25.70347 | 37157 ft | 571 kts | 146° |
| 2026-05-07 08:30 | 35.69870 | 25.76224 | 37167 ft | 572 kts | 145° |
| 2026-05-07 08:30 | 35.63551 | 25.82057 | 37167 ft | 572 kts | 145° |
| 2026-05-07 08:31 | 35.57183 | 25.87923 | 37160 ft | 572 kts | 145° |
| 2026-05-07 08:31 | 35.50808 | 25.93784 | 37164 ft | 572 kts | 145° |
| 2026-05-07 08:32 | 35.44433 | 25.99634 | 37161 ft | 573 kts | 145° |
| 2026-05-07 08:32 | 35.38051 | 26.05477 | 37163 ft | 573 kts | 145° |
| 2026-05-07 08:33 | 35.31708 | 26.11274 | 37155 ft | 573 kts | 145° |
| 2026-05-07 08:33 | 35.25318 | 26.17102 | 37165 ft | 573 kts | 145° |
| 2026-05-07 08:34 | 35.18920 | 26.22925 | 37166 ft | 573 kts | 145° |
| 2026-05-07 08:34 | 35.12522 | 26.28737 | 37151 ft | 572 kts | 145° |
| 2026-05-07 08:35 | 35.06174 | 26.34491 | 37162 ft | 573 kts | 144° |
| 2026-05-07 08:35 | 34.99771 | 26.40284 | 37163 ft | 573 kts | 144° |
| 2026-05-07 08:36 | 34.93367 | 26.46066 | 37164 ft | 573 kts | 144° |
| 2026-05-07 08:36 | 34.86958 | 26.51841 | 37166 ft | 573 kts | 144° |
| 2026-05-07 08:37 | 34.80543 | 26.57610 | 37165 ft | 573 kts | 144° |
| 2026-05-07 08:37 | 34.74175 | 26.63326 | 37160 ft | 573 kts | 144° |
| 2026-05-07 08:38 | 34.67752 | 26.69079 | 37160 ft | 573 kts | 144° |
| 2026-05-07 08:38 | 34.61333 | 26.74818 | 37162 ft | 573 kts | 144° |
| 2026-05-07 08:39 | 34.54945 | 26.80519 | 37168 ft | 573 kts | 144° |
| 2026-05-07 08:39 | 34.48528 | 26.86233 | 37170 ft | 573 kts | 144° |
| 2026-05-07 08:40 | 34.42085 | 26.91960 | 37170 ft | 573 kts | 144° |
| 2026-05-07 08:40 | 34.36741 | 26.96701 | 37173 ft | 573 kts | 144° |
| 2026-05-07 08:41 | 34.29274 | 27.03312 | 37169 ft | 572 kts | 144° |
| 2026-05-07 08:41 | 34.22853 | 27.08987 | 37173 ft | 572 kts | 143° |
| 2026-05-07 08:42 | 34.16441 | 27.14647 | 37169 ft | 571 kts | 143° |
| 2026-05-07 08:42 | 34.11113 | 27.19344 | 37171 ft | 570 kts | 143° |
| 2026-05-07 08:43 | 34.04702 | 27.24984 | 37171 ft | 569 kts | 143° |
| 2026-05-07 08:43 | 33.97252 | 27.31471 | 37166 ft | 568 kts | 147° |
| 2026-05-07 08:44 | 33.90304 | 27.35955 | 37169 ft | 566 kts | 159° |
| 2026-05-07 08:44 | 33.84301 | 27.39081 | 37166 ft | 565 kts | 158° |
| 2026-05-07 08:45 | 33.77108 | 27.42901 | 37166 ft | 565 kts | 158° |
| 2026-05-07 08:45 | 33.69917 | 27.46710 | 37165 ft | 565 kts | 158° |
| 2026-05-07 08:46 | 33.62726 | 27.50507 | 37163 ft | 565 kts | 157° |
| 2026-05-07 08:46 | 33.55535 | 27.54296 | 37168 ft | 565 kts | 157° |
| 2026-05-07 08:47 | 33.48390 | 27.58054 | 37167 ft | 565 kts | 157° |
| 2026-05-07 08:47 | 33.41191 | 27.61833 | 37166 ft | 565 kts | 157° |
| 2026-05-07 08:48 | 33.33993 | 27.65605 | 37169 ft | 565 kts | 157° |
| 2026-05-07 08:48 | 33.26786 | 27.69375 | 37167 ft | 565 kts | 157° |
| 2026-05-07 08:49 | 33.19628 | 27.73113 | 37173 ft | 565 kts | 157° |
| 2026-05-07 08:49 | 33.12626 | 27.76762 | 37181 ft | 565 kts | 157° |
| 2026-05-07 08:50 | 33.05411 | 27.80516 | 37184 ft | 565 kts | 157° |
| 2026-05-07 08:50 | 32.98249 | 27.84235 | 37182 ft | 565 kts | 157° |
| 2026-05-07 08:51 | 32.91095 | 27.87944 | 37178 ft | 564 kts | 157° |
| 2026-05-07 08:51 | 32.83914 | 27.91661 | 37179 ft | 563 kts | 156° |
| 2026-05-07 08:52 | 32.76722 | 27.95376 | 37176 ft | 562 kts | 156° |
| 2026-05-07 08:52 | 32.69547 | 27.99075 | 37174 ft | 561 kts | 156° |
| 2026-05-07 08:53 | 32.62387 | 28.02762 | 37169 ft | 561 kts | 156° |
| 2026-05-07 08:53 | 32.55280 | 28.06414 | 37166 ft | 560 kts | 156° |
| 2026-05-07 08:54 | 32.48136 | 28.10078 | 37167 ft | 559 kts | 156° |
| 2026-05-07 08:54 | 32.41000 | 28.13733 | 37164 ft | 559 kts | 156° |
| 2026-05-07 08:55 | 32.33867 | 28.17379 | 37160 ft | 558 kts | 156° |
| 2026-05-07 08:55 | 32.26790 | 28.20991 | 37166 ft | 558 kts | 156° |
| 2026-05-07 08:56 | 32.19664 | 28.24621 | 37170 ft | 557 kts | 156° |
| 2026-05-07 08:56 | 32.12556 | 28.28237 | 37170 ft | 557 kts | 156° |
| 2026-05-07 08:57 | 32.05436 | 28.31852 | 37169 ft | 556 kts | 156° |
| 2026-05-07 08:57 | 31.98381 | 28.35428 | 37173 ft | 556 kts | 156° |
| 2026-05-07 08:58 | 31.91287 | 28.39018 | 37168 ft | 555 kts | 156° |
| 2026-05-07 08:58 | 31.84187 | 28.42606 | 37170 ft | 554 kts | 156° |
| 2026-05-07 08:59 | 31.77098 | 28.46167 | 37170 ft | 554 kts | 156° |
| 2026-05-07 08:59 | 31.70064 | 28.49693 | 37172 ft | 553 kts | 156° |
| 2026-05-07 09:00 | 31.62996 | 28.53233 | 37169 ft | 552 kts | 156° |
| 2026-05-07 09:00 | 31.55937 | 28.56757 | 37171 ft | 551 kts | 156° |
| 2026-05-07 09:01 | 31.48891 | 28.60264 | 37169 ft | 550 kts | 156° |
| 2026-05-07 09:01 | 31.41898 | 28.63739 | 37167 ft | 549 kts | 156° |
| 2026-05-07 09:02 | 31.34877 | 28.67222 | 37175 ft | 547 kts | 156° |
| 2026-05-07 09:02 | 31.27871 | 28.70694 | 37162 ft | 546 kts | 157° |
| 2026-05-07 09:03 | 31.20883 | 28.74150 | 37162 ft | 545 kts | 157° |
| 2026-05-07 09:03 | 31.13913 | 28.77592 | 37165 ft | 543 kts | 157° |
| 2026-05-07 09:04 | 31.07005 | 28.80998 | 37166 ft | 542 kts | 157° |
| 2026-05-07 09:04 | 31.00071 | 28.84411 | 37173 ft | 540 kts | 157° |
| 2026-05-07 09:05 | 30.93158 | 28.87808 | 37176 ft | 539 kts | 157° |
| 2026-05-07 09:05 | 30.86266 | 28.91191 | 37163 ft | 537 kts | 158° |
| 2026-05-07 09:06 | 30.79376 | 28.94566 | 37176 ft | 536 kts | 158° |
| 2026-05-07 09:06 | 30.72558 | 28.97901 | 37158 ft | 535 kts | 158° |
| 2026-05-07 09:07 | 30.65714 | 29.01244 | 37161 ft | 533 kts | 158° |
| 2026-05-07 09:07 | 30.58878 | 29.04578 | 37147 ft | 532 kts | 158° |
| 2026-05-07 09:08 | 30.52141 | 29.08091 | 37141 ft | 531 kts | 150° |
| 2026-05-07 09:08 | 30.46336 | 29.13214 | 37128 ft | 528 kts | 133° |
| 2026-05-07 09:09 | 30.41271 | 29.19371 | 37123 ft | 527 kts | 133° |
| 2026-05-07 09:09 | 30.36185 | 29.25475 | 37120 ft | 526 kts | 133° |
| 2026-05-07 09:10 | 30.31130 | 29.31514 | 37116 ft | 525 kts | 133° |
| 2026-05-07 09:10 | 30.26059 | 29.37569 | 37117 ft | 524 kts | 133° |
| 2026-05-07 09:11 | 30.20991 | 29.43619 | 37116 ft | 523 kts | 133° |
| 2026-05-07 09:11 | 30.15934 | 29.49646 | 37115 ft | 522 kts | 133° |
| 2026-05-07 09:12 | 30.10875 | 29.55664 | 37117 ft | 521 kts | 133° |
| 2026-05-07 09:12 | 30.05853 | 29.61629 | 37115 ft | 521 kts | 134° |
| 2026-05-07 09:13 | 30.00809 | 29.67611 | 37116 ft | 520 kts | 134° |
| 2026-05-07 09:13 | 29.95766 | 29.73581 | 37116 ft | 520 kts | 134° |
| 2026-05-07 09:14 | 29.90717 | 29.79551 | 37113 ft | 519 kts | 134° |
| 2026-05-07 09:14 | 29.85680 | 29.85497 | 37114 ft | 519 kts | 134° |
| 2026-05-07 09:15 | 29.80671 | 29.91401 | 37114 ft | 518 kts | 134° |
| 2026-05-07 09:15 | 29.75631 | 29.97332 | 37113 ft | 518 kts | 134° |
| 2026-05-07 09:16 | 29.70591 | 30.03255 | 37113 ft | 518 kts | 134° |
| 2026-05-07 09:16 | 29.65547 | 30.09172 | 37120 ft | 518 kts | 134° |
| 2026-05-07 09:17 | 29.60537 | 30.15041 | 37120 ft | 518 kts | 134° |
| 2026-05-07 09:17 | 29.55492 | 30.20942 | 37126 ft | 518 kts | 134° |
| 2026-05-07 09:18 | 29.50441 | 30.26841 | 37125 ft | 517 kts | 134° |
| 2026-05-07 09:18 | 29.45397 | 30.32722 | 37129 ft | 517 kts | 135° |
| 2026-05-07 09:19 | 29.40388 | 30.38557 | 37129 ft | 516 kts | 135° |
| 2026-05-07 09:19 | 29.35389 | 30.44465 | 37127 ft | 516 kts | 134° |
| 2026-05-07 09:20 | 29.30432 | 30.50414 | 37120 ft | 515 kts | 134° |
| 2026-05-07 09:20 | 29.25475 | 30.56335 | 37120 ft | 515 kts | 134° |
| 2026-05-07 09:21 | 29.20544 | 30.62205 | 37119 ft | 515 kts | 134° |
| 2026-05-07 09:21 | 29.15577 | 30.68105 | 37120 ft | 514 kts | 134° |
| 2026-05-07 09:22 | 29.10610 | 30.73997 | 37125 ft | 514 kts | 134° |
| 2026-05-07 09:22 | 29.05649 | 30.79875 | 37136 ft | 514 kts | 134° |
| 2026-05-07 09:23 | 29.00723 | 30.85704 | 37114 ft | 513 kts | 135° |
| 2026-05-07 09:23 | 28.95767 | 30.91558 | 37107 ft | 512 kts | 135° |
| 2026-05-07 09:24 | 28.90809 | 30.97407 | 37100 ft | 512 kts | 135° |
| 2026-05-07 09:24 | 28.85864 | 31.03231 | 37098 ft | 511 kts | 135° |
| 2026-05-07 09:25 | 28.80947 | 31.09014 | 37093 ft | 511 kts | 135° |
| 2026-05-07 09:25 | 28.76005 | 31.14818 | 37090 ft | 510 kts | 135° |
| 2026-05-07 09:26 | 28.71062 | 31.20615 | 37105 ft | 509 kts | 135° |
| 2026-05-07 09:26 | 28.66215 | 31.26499 | 37108 ft | 509 kts | 133° |
| 2026-05-07 09:27 | 28.61511 | 31.32518 | 37110 ft | 509 kts | 133° |
| 2026-05-07 09:28 | 28.54441 | 31.41454 | 37089 ft | 509 kts | 133° |
| 2026-05-07 09:28 | 28.49689 | 31.47418 | 37087 ft | 509 kts | 133° |
| 2026-05-07 09:29 | 28.44934 | 31.53378 | 37099 ft | 509 kts | 133° |
| 2026-05-07 09:29 | 28.40173 | 31.59336 | 37095 ft | 509 kts | 133° |
| 2026-05-07 09:30 | 28.35445 | 31.65245 | 37095 ft | 509 kts | 134° |
| 2026-05-07 09:30 | 28.30691 | 31.71178 | 37092 ft | 509 kts | 134° |
| 2026-05-07 09:31 | 28.25925 | 31.77119 | 37086 ft | 508 kts | 134° |
| 2026-05-07 09:31 | 28.21163 | 31.83045 | 37083 ft | 508 kts | 134° |
| 2026-05-07 09:32 | 28.16398 | 31.88965 | 37075 ft | 508 kts | 134° |
| 2026-05-07 09:32 | 28.11659 | 31.94845 | 37074 ft | 508 kts | 134° |
| 2026-05-07 09:33 | 28.06886 | 32.00760 | 37077 ft | 508 kts | 134° |
| 2026-05-07 09:33 | 28.02482 | 32.07018 | 37066 ft | 511 kts | 123° |
| 2026-05-07 09:34 | 27.99053 | 32.14061 | 37047 ft | 511 kts | 120° |
| 2026-05-07 09:34 | 27.95677 | 32.21077 | 37045 ft | 511 kts | 120° |
| 2026-05-07 09:35 | 27.92265 | 32.28140 | 37034 ft | 512 kts | 120° |
| 2026-05-07 09:35 | 27.88856 | 32.35192 | 37018 ft | 511 kts | 120° |
| 2026-05-07 09:36 | 27.85439 | 32.42250 | 37004 ft | 511 kts | 120° |
| 2026-05-07 09:36 | 27.82047 | 32.49245 | 37004 ft | 511 kts | 120° |
| 2026-05-07 09:37 | 27.78628 | 32.56284 | 37000 ft | 511 kts | 120° |
| 2026-05-07 09:37 | 27.75205 | 32.63317 | 36993 ft | 511 kts | 121° |
| 2026-05-07 09:38 | 27.71776 | 32.70352 | 36992 ft | 511 kts | 121° |
| 2026-05-07 09:38 | 27.68369 | 32.77331 | 36988 ft | 511 kts | 121° |
| 2026-05-07 09:39 | 27.64953 | 32.84316 | 36989 ft | 512 kts | 121° |
| 2026-05-07 09:39 | 27.61513 | 32.91339 | 36987 ft | 512 kts | 121° |
| 2026-05-07 09:40 | 27.58068 | 32.98359 | 36984 ft | 512 kts | 121° |
| 2026-05-07 09:40 | 27.54617 | 33.05383 | 36982 ft | 512 kts | 121° |
| 2026-05-07 09:41 | 27.51185 | 33.12356 | 36983 ft | 512 kts | 121° |
| 2026-05-07 09:41 | 27.47723 | 33.19375 | 36983 ft | 513 kts | 122° |
| 2026-05-07 09:42 | 27.44255 | 33.26397 | 36979 ft | 513 kts | 122° |
| 2026-05-07 09:42 | 27.40785 | 33.33413 | 36980 ft | 513 kts | 122° |
| 2026-05-07 09:43 | 27.37331 | 33.40386 | 36976 ft | 513 kts | 122° |
| 2026-05-07 09:43 | 27.33851 | 33.47395 | 36979 ft | 514 kts | 122° |
| 2026-05-07 09:44 | 27.30364 | 33.54406 | 36981 ft | 514 kts | 122° |
| 2026-05-07 09:44 | 27.26875 | 33.61412 | 36985 ft | 514 kts | 122° |
| 2026-05-07 09:45 | 27.23394 | 33.68390 | 36987 ft | 514 kts | 123° |
| 2026-05-07 09:45 | 27.19892 | 33.75398 | 36992 ft | 514 kts | 123° |
| 2026-05-07 09:46 | 27.16712 | 33.82546 | 36989 ft | 519 kts | 114° |
| 2026-05-07 09:46 | 27.14071 | 33.90078 | 36994 ft | 519 kts | 115° |
| 2026-05-07 09:47 | 27.11394 | 33.97603 | 36975 ft | 519 kts | 115° |
| 2026-05-07 09:47 | 27.08712 | 34.05121 | 36969 ft | 519 kts | 116° |
| 2026-05-07 09:48 | 27.06022 | 34.12653 | 36965 ft | 520 kts | 116° |
| 2026-05-07 09:48 | 27.03348 | 34.20126 | 36972 ft | 520 kts | 116° |
| 2026-05-07 09:49 | 27.00653 | 34.27643 | 36966 ft | 520 kts | 116° |
| 2026-05-07 09:49 | 26.97950 | 34.35165 | 36965 ft | 520 kts | 116° |
| 2026-05-07 09:50 | 26.95245 | 34.42677 | 36958 ft | 520 kts | 117° |
| 2026-05-07 09:50 | 26.92536 | 34.50189 | 36962 ft | 520 kts | 117° |
| 2026-05-07 09:51 | 26.89837 | 34.57655 | 36962 ft | 520 kts | 117° |
| 2026-05-07 09:51 | 26.87118 | 34.65163 | 36961 ft | 521 kts | 117° |
| 2026-05-07 09:52 | 26.84389 | 34.72684 | 36959 ft | 521 kts | 117° |
| 2026-05-07 09:52 | 26.81659 | 34.80193 | 36959 ft | 521 kts | 118° |
| 2026-05-07 09:53 | 26.78938 | 34.87663 | 36960 ft | 522 kts | 118° |
| 2026-05-07 09:53 | 26.76195 | 34.95179 | 36960 ft | 522 kts | 118° |
| 2026-05-07 09:54 | 26.73448 | 35.02698 | 36961 ft | 522 kts | 118° |
| 2026-05-07 09:54 | 26.70713 | 35.10171 | 36956 ft | 522 kts | 118° |
| 2026-05-07 09:55 | 26.67960 | 35.17678 | 36955 ft | 523 kts | 118° |
| 2026-05-07 09:55 | 26.65195 | 35.25204 | 36950 ft | 523 kts | 119° |
| 2026-05-07 09:56 | 26.62428 | 35.32721 | 36946 ft | 523 kts | 119° |
| 2026-05-07 09:56 | 26.59653 | 35.40244 | 36946 ft | 523 kts | 119° |
| 2026-05-07 09:57 | 26.56895 | 35.47708 | 36941 ft | 524 kts | 119° |
| 2026-05-07 09:57 | 26.54068 | 35.55203 | 36941 ft | 523 kts | 120° |
| 2026-05-07 09:58 | 26.51200 | 35.62672 | 36939 ft | 524 kts | 120° |
| 2026-05-07 09:58 | 26.48337 | 35.70146 | 36941 ft | 524 kts | 120° |
| 2026-05-07 09:59 | 26.45491 | 35.77571 | 36941 ft | 524 kts | 120° |
| 2026-05-07 09:59 | 26.42621 | 35.85049 | 36938 ft | 524 kts | 120° |
| 2026-05-07 10:00 | 26.39747 | 35.92523 | 36934 ft | 524 kts | 120° |
| 2026-05-07 10:00 | 26.36868 | 35.99994 | 36935 ft | 524 kts | 121° |
| 2026-05-07 10:01 | 26.34006 | 36.07410 | 36944 ft | 525 kts | 121° |
| 2026-05-07 10:01 | 26.31117 | 36.14882 | 36945 ft | 525 kts | 121° |
| 2026-05-07 10:02 | 26.28225 | 36.22347 | 36937 ft | 525 kts | 121° |
| 2026-05-07 10:02 | 26.25328 | 36.29811 | 36938 ft | 525 kts | 121° |
| 2026-05-07 10:03 | 26.22449 | 36.37216 | 36938 ft | 524 kts | 121° |
| 2026-05-07 10:03 | 26.19548 | 36.44664 | 36934 ft | 524 kts | 121° |
| 2026-05-07 10:04 | 26.16407 | 36.51929 | 36933 ft | 517 kts | 127° |
| 2026-05-07 10:04 | 26.12937 | 36.58941 | 36934 ft | 518 kts | 127° |
| 2026-05-07 10:05 | 26.09503 | 36.65921 | 36930 ft | 518 kts | 127° |
| 2026-05-07 10:05 | 26.06038 | 36.72946 | 36921 ft | 518 kts | 127° |
| 2026-05-07 10:06 | 26.02571 | 36.79960 | 36925 ft | 518 kts | 127° |
| 2026-05-07 10:06 | 25.99099 | 36.86974 | 36925 ft | 518 kts | 127° |
| 2026-05-07 10:07 | 25.95644 | 36.93941 | 36923 ft | 518 kts | 128° |
| 2026-05-07 10:07 | 25.92168 | 37.00940 | 36924 ft | 518 kts | 128° |
| 2026-05-07 10:08 | 25.88683 | 37.07945 | 36913 ft | 518 kts | 128° |
| 2026-05-07 10:08 | 25.85199 | 37.14938 | 36923 ft | 517 kts | 128° |
| 2026-05-07 10:09 | 25.81708 | 37.21932 | 36916 ft | 518 kts | 128° |
| 2026-05-07 10:09 | 25.78242 | 37.28879 | 36910 ft | 518 kts | 128° |
| 2026-05-07 10:10 | 25.74761 | 37.35882 | 36913 ft | 519 kts | 128° |
| 2026-05-07 10:10 | 25.71270 | 37.42891 | 36917 ft | 519 kts | 128° |
| 2026-05-07 10:11 | 25.67769 | 37.49905 | 36914 ft | 520 kts | 128° |
| 2026-05-07 10:11 | 25.64262 | 37.56922 | 36915 ft | 521 kts | 128° |
| 2026-05-07 10:12 | 25.60759 | 37.63914 | 36927 ft | 523 kts | 128° |
| 2026-05-07 10:12 | 25.57217 | 37.70975 | 36924 ft | 524 kts | 128° |
| 2026-05-07 10:13 | 25.53672 | 37.78036 | 36915 ft | 525 kts | 128° |
| 2026-05-07 10:13 | 25.50121 | 37.85095 | 36907 ft | 525 kts | 128° |
| 2026-05-07 10:14 | 25.46595 | 37.92096 | 36894 ft | 524 kts | 128° |
| 2026-05-07 10:14 | 25.43037 | 37.99144 | 36882 ft | 524 kts | 128° |
| 2026-05-07 10:15 | 25.39487 | 38.06170 | 36865 ft | 523 kts | 128° |
| 2026-05-07 10:15 | 25.35933 | 38.13193 | 36861 ft | 523 kts | 128° |
| 2026-05-07 10:16 | 25.32386 | 38.20192 | 36855 ft | 522 kts | 128° |
| 2026-05-07 10:16 | 25.28859 | 38.27139 | 36860 ft | 522 kts | 128° |
| 2026-05-07 10:17 | 25.25312 | 38.34113 | 36867 ft | 521 kts | 128° |
| 2026-05-07 10:17 | 25.21747 | 38.41115 | 36867 ft | 521 kts | 128° |
| 2026-05-07 10:18 | 25.18192 | 38.48087 | 36871 ft | 521 kts | 128° |
| 2026-05-07 10:18 | 25.14755 | 38.54815 | 36875 ft | 521 kts | 128° |
| 2026-05-07 10:19 | 25.11190 | 38.61770 | 36873 ft | 520 kts | 128° |
| 2026-05-07 10:19 | 25.07628 | 38.68712 | 36882 ft | 520 kts | 129° |
| 2026-05-07 10:20 | 25.04060 | 38.75654 | 36893 ft | 519 kts | 129° |
| 2026-05-07 10:20 | 25.00523 | 38.82526 | 36901 ft | 519 kts | 129° |
| 2026-05-07 10:21 | 24.96953 | 38.89454 | 36905 ft | 520 kts | 129° |
| 2026-05-07 10:21 | 24.93376 | 38.96382 | 36901 ft | 520 kts | 129° |
| 2026-05-07 10:22 | 24.89789 | 39.03311 | 36908 ft | 521 kts | 129° |
| 2026-05-07 10:22 | 24.86195 | 39.10246 | 36928 ft | 521 kts | 129° |
| 2026-05-07 10:23 | 24.82619 | 39.17133 | 36923 ft | 522 kts | 129° |
| 2026-05-07 10:23 | 24.79014 | 39.24071 | 36916 ft | 521 kts | 129° |
| 2026-05-07 10:24 | 24.75416 | 39.30990 | 36893 ft | 521 kts | 129° |
| 2026-05-07 10:24 | 24.71812 | 39.37905 | 36924 ft | 522 kts | 129° |
| 2026-05-07 10:25 | 24.68193 | 39.44836 | 36939 ft | 522 kts | 129° |
| 2026-05-07 10:25 | 24.64599 | 39.51714 | 36953 ft | 523 kts | 129° |
| 2026-05-07 10:26 | 24.60979 | 39.58633 | 36958 ft | 521 kts | 129° |
| 2026-05-07 10:26 | 24.57390 | 39.65572 | 36953 ft | 526 kts | 126° |
| 2026-05-07 10:27 | 24.54790 | 39.73215 | 36952 ft | 545 kts | 111° |
| 2026-05-07 10:27 | 24.53689 | 39.81496 | 36956 ft | 556 kts | 102° |
| 2026-05-07 10:28 | 24.52895 | 39.89940 | 36955 ft | 556 kts | 103° |
| 2026-05-07 10:28 | 24.52077 | 39.98376 | 36955 ft | 556 kts | 103° |
| 2026-05-07 10:29 | 24.51259 | 40.06774 | 36950 ft | 556 kts | 103° |
| 2026-05-07 10:29 | 24.50433 | 40.15216 | 36947 ft | 556 kts | 103° |
| 2026-05-07 10:30 | 24.49188 | 40.27869 | 36947 ft | 556 kts | 103° |
| 2026-05-07 10:30 | 24.48351 | 40.36299 | 36944 ft | 556 kts | 103° |
| 2026-05-07 10:31 | 24.47510 | 40.44734 | 36944 ft | 556 kts | 103° |
| 2026-05-07 10:31 | 24.46670 | 40.53103 | 36957 ft | 556 kts | 103° |
| 2026-05-07 10:32 | 24.45820 | 40.61532 | 36949 ft | 556 kts | 103° |
| 2026-05-07 10:32 | 24.44963 | 40.69962 | 36958 ft | 555 kts | 103° |
| 2026-05-07 10:33 | 24.44102 | 40.78383 | 36965 ft | 555 kts | 103° |
| 2026-05-07 10:33 | 24.43243 | 40.86739 | 36970 ft | 555 kts | 103° |
| 2026-05-07 10:34 | 24.42374 | 40.95159 | 37033 ft | 554 kts | 104° |
| 2026-05-07 10:34 | 24.41502 | 41.03547 | 37024 ft | 553 kts | 104° |
| 2026-05-07 10:35 | 24.40626 | 41.11925 | 37029 ft | 552 kts | 104° |
| 2026-05-07 10:35 | 24.39750 | 41.20285 | 37026 ft | 551 kts | 104° |
| 2026-05-07 10:36 | 24.38877 | 41.28566 | 37024 ft | 550 kts | 104° |
| 2026-05-07 10:36 | 24.37994 | 41.36893 | 37026 ft | 549 kts | 104° |
| 2026-05-07 10:37 | 24.37108 | 41.45206 | 37031 ft | 549 kts | 104° |
| 2026-05-07 10:37 | 24.36217 | 41.53522 | 37030 ft | 548 kts | 104° |
| 2026-05-07 10:38 | 24.35324 | 41.61818 | 37030 ft | 548 kts | 104° |
| 2026-05-07 10:38 | 24.34434 | 41.70049 | 37024 ft | 547 kts | 104° |
| 2026-05-07 10:39 | 24.33533 | 41.78327 | 37023 ft | 547 kts | 104° |
| 2026-05-07 10:39 | 24.32067 | 41.86407 | 37013 ft | 534 kts | 115° |
| 2026-05-07 10:40 | 24.29983 | 41.94216 | 37009 ft | 534 kts | 114° |
| 2026-05-07 10:40 | 24.27942 | 42.01997 | 37005 ft | 535 kts | 114° |
| 2026-05-07 10:41 | 24.25882 | 42.09821 | 37005 ft | 535 kts | 114° |
| 2026-05-07 10:41 | 24.23809 | 42.17665 | 37009 ft | 536 kts | 114° |
| 2026-05-07 10:42 | 24.21729 | 42.25514 | 37013 ft | 537 kts | 114° |
| 2026-05-07 10:42 | 24.19641 | 42.33378 | 37020 ft | 538 kts | 114° |
| 2026-05-07 10:43 | 24.17561 | 42.41199 | 37031 ft | 539 kts | 114° |
| 2026-05-07 10:43 | 24.15458 | 42.49084 | 37036 ft | 540 kts | 114° |
| 2026-05-07 10:44 | 24.13350 | 42.56973 | 37039 ft | 540 kts | 114° |
| 2026-05-07 10:44 | 24.11235 | 42.64868 | 37042 ft | 540 kts | 114° |
| 2026-05-07 10:45 | 24.09121 | 42.72745 | 37041 ft | 540 kts | 114° |
| 2026-05-07 10:45 | 24.07013 | 42.80577 | 37037 ft | 539 kts | 114° |
| 2026-05-07 10:46 | 24.04893 | 42.88441 | 37031 ft | 538 kts | 114° |
| 2026-05-07 10:46 | 24.02770 | 42.96292 | 37031 ft | 538 kts | 114° |
| 2026-05-07 10:47 | 24.00648 | 43.04122 | 37026 ft | 537 kts | 114° |
| 2026-05-07 10:47 | 23.98540 | 43.11886 | 37019 ft | 536 kts | 114° |
| 2026-05-07 10:48 | 23.96417 | 43.19685 | 37027 ft | 535 kts | 114° |
| 2026-05-07 10:48 | 23.94293 | 43.27472 | 37023 ft | 534 kts | 114° |
| 2026-05-07 10:49 | 23.92167 | 43.35252 | 36997 ft | 534 kts | 114° |
| 2026-05-07 10:49 | 23.90036 | 43.43029 | 36983 ft | 534 kts | 114° |
| 2026-05-07 10:50 | 23.87917 | 43.50747 | 36973 ft | 533 kts | 114° |
| 2026-05-07 10:50 | 23.85783 | 43.58503 | 36965 ft | 533 kts | 114° |
| 2026-05-07 10:51 | 23.83647 | 43.66251 | 36966 ft | 533 kts | 114° |
| 2026-05-07 10:51 | 23.81510 | 43.73987 | 36954 ft | 532 kts | 114° |
| 2026-05-07 10:52 | 23.79368 | 43.81721 | 36947 ft | 532 kts | 114° |
| 2026-05-07 10:52 | 23.77486 | 43.89502 | 36941 ft | 539 kts | 105° |
| 2026-05-07 10:53 | 23.76736 | 43.97691 | 36932 ft | 544 kts | 100° |
| 2026-05-07 10:53 | 23.76134 | 44.05913 | 36929 ft | 543 kts | 100° |
| 2026-05-07 10:54 | 23.75516 | 44.14129 | 36929 ft | 543 kts | 100° |
| 2026-05-07 10:54 | 23.74896 | 44.22350 | 36925 ft | 543 kts | 100° |
| 2026-05-07 10:55 | 23.74278 | 44.30503 | 36927 ft | 543 kts | 100° |
| 2026-05-07 10:55 | 23.73650 | 44.38717 | 36932 ft | 543 kts | 100° |
| 2026-05-07 10:56 | 23.73018 | 44.46944 | 36934 ft | 544 kts | 100° |
| 2026-05-07 10:56 | 23.72381 | 44.55160 | 36937 ft | 544 kts | 100° |
| 2026-05-07 10:57 | 23.71745 | 44.63334 | 36941 ft | 544 kts | 100° |
| 2026-05-07 10:57 | 23.71100 | 44.71549 | 36945 ft | 544 kts | 100° |
| 2026-05-07 10:58 | 23.70447 | 44.79793 | 37135 ft | 547 kts | 100° |
| 2026-05-07 10:58 | 23.70119 | 44.83932 | 37619 ft | 546 kts | 100° |
| 2026-05-07 10:58 | 23.69791 | 44.88053 | 38091 ft | 545 kts | 100° |
| 2026-05-07 10:59 | 23.69462 | 44.92175 | 38547 ft | 544 kts | 100° |
| 2026-05-07 10:59 | 23.69132 | 44.96284 | 38864 ft | 546 kts | 100° |
| 2026-05-07 10:59 | 23.68475 | 45.04436 | 38937 ft | 538 kts | 100° |
| 2026-05-07 11:00 | 23.67813 | 45.12579 | 38932 ft | 540 kts | 100° |
| 2026-05-07 11:00 | 23.67144 | 45.20748 | 38937 ft | 540 kts | 100° |
| 2026-05-07 11:01 | 23.66471 | 45.28919 | 38931 ft | 540 kts | 100° |
| 2026-05-07 11:01 | 23.65797 | 45.37066 | 38936 ft | 540 kts | 100° |
| 2026-05-07 11:02 | 23.65122 | 45.45173 | 38934 ft | 540 kts | 100° |
| 2026-05-07 11:02 | 23.64436 | 45.53338 | 38932 ft | 540 kts | 100° |
| 2026-05-07 11:03 | 23.63748 | 45.61499 | 38929 ft | 541 kts | 100° |
| 2026-05-07 11:03 | 23.63055 | 45.69654 | 38928 ft | 541 kts | 99° |
| 2026-05-07 11:04 | 23.62356 | 45.77820 | 38919 ft | 541 kts | 100° |
| 2026-05-07 11:04 | 23.61658 | 45.85928 | 38920 ft | 541 kts | 100° |
| 2026-05-07 11:05 | 23.60951 | 45.94095 | 38919 ft | 541 kts | 99° |
| 2026-05-07 11:05 | 23.60239 | 46.02263 | 38923 ft | 542 kts | 99° |
| 2026-05-07 11:06 | 23.59521 | 46.10449 | 38933 ft | 542 kts | 99° |
| 2026-05-07 11:06 | 23.58805 | 46.18575 | 38943 ft | 542 kts | 99° |
| 2026-05-07 11:07 | 23.58079 | 46.26750 | 38957 ft | 542 kts | 99° |
| 2026-05-07 11:07 | 23.57350 | 46.34921 | 38951 ft | 541 kts | 99° |
| 2026-05-07 11:08 | 23.56617 | 46.43079 | 38951 ft | 540 kts | 99° |
| 2026-05-07 11:08 | 23.55881 | 46.51217 | 38947 ft | 539 kts | 99° |
| 2026-05-07 11:09 | 23.55147 | 46.59300 | 38937 ft | 539 kts | 99° |
| 2026-05-07 11:09 | 23.54408 | 46.67391 | 38939 ft | 538 kts | 99° |
| 2026-05-07 11:10 | 23.53663 | 46.75497 | 38921 ft | 537 kts | 99° |
| 2026-05-07 11:10 | 23.52914 | 46.83594 | 38914 ft | 537 kts | 99° |
| 2026-05-07 11:11 | 23.52166 | 46.91635 | 38905 ft | 537 kts | 99° |
| 2026-05-07 11:11 | 23.51410 | 46.99722 | 38901 ft | 537 kts | 99° |
| 2026-05-07 11:12 | 23.50648 | 47.07819 | 38910 ft | 537 kts | 99° |
| 2026-05-07 11:12 | 23.49882 | 47.15914 | 38905 ft | 537 kts | 99° |
| 2026-05-07 11:13 | 23.49243 | 47.22644 | 38894 ft | 538 kts | 99° |
| 2026-05-07 11:13 | 23.48343 | 47.32059 | 38887 ft | 538 kts | 99° |
| 2026-05-07 11:14 | 23.47564 | 47.40160 | 38892 ft | 538 kts | 99° |
| 2026-05-07 11:14 | 23.46913 | 47.46892 | 38897 ft | 538 kts | 99° |
| 2026-05-07 11:15 | 23.46127 | 47.54989 | 38887 ft | 537 kts | 99° |
| 2026-05-07 11:15 | 23.45209 | 47.64388 | 38881 ft | 537 kts | 99° |
| 2026-05-07 11:16 | 23.44544 | 47.71170 | 38874 ft | 537 kts | 99° |
| 2026-05-07 11:16 | 23.43752 | 47.79195 | 38868 ft | 537 kts | 99° |
| 2026-05-07 11:17 | 23.42951 | 47.87274 | 38861 ft | 537 kts | 99° |
| 2026-05-07 11:17 | 23.42145 | 47.95353 | 38854 ft | 537 kts | 99° |
| 2026-05-07 11:18 | 23.41336 | 48.03430 | 38844 ft | 536 kts | 99° |
| 2026-05-07 11:18 | 23.40523 | 48.11500 | 38842 ft | 536 kts | 99° |
| 2026-05-07 11:19 | 23.39711 | 48.19521 | 38836 ft | 536 kts | 99° |
| 2026-05-07 11:19 | 23.38890 | 48.27587 | 38833 ft | 536 kts | 99° |
| 2026-05-07 11:20 | 23.38140 | 48.35657 | 38830 ft | 538 kts | 95° |
| 2026-05-07 11:20 | 23.37837 | 48.43796 | 38825 ft | 538 kts | 95° |
| 2026-05-07 11:21 | 23.37510 | 48.51926 | 38828 ft | 538 kts | 95° |
| 2026-05-07 11:21 | 23.37179 | 48.59992 | 38823 ft | 537 kts | 95° |
| 2026-05-07 11:22 | 23.36843 | 48.68113 | 38826 ft | 537 kts | 95° |
| 2026-05-07 11:22 | 23.36502 | 48.76227 | 38819 ft | 536 kts | 95° |
| 2026-05-07 11:23 | 23.36158 | 48.84327 | 38814 ft | 536 kts | 95° |
| 2026-05-07 11:23 | 23.35813 | 48.92364 | 38812 ft | 535 kts | 95° |
| 2026-05-07 11:24 | 23.35461 | 49.00450 | 38810 ft | 534 kts | 95° |
| 2026-05-07 11:24 | 23.34927 | 49.08490 | 38810 ft | 531 kts | 101° |
| 2026-05-07 11:25 | 23.33763 | 49.16424 | 38801 ft | 530 kts | 102° |
| 2026-05-07 11:25 | 23.32638 | 49.24293 | 38799 ft | 530 kts | 102° |
| 2026-05-07 11:26 | 23.31503 | 49.32216 | 38796 ft | 530 kts | 102° |
| 2026-05-07 11:26 | 23.30360 | 49.40125 | 38803 ft | 529 kts | 102° |
| 2026-05-07 11:27 | 23.29212 | 49.48035 | 38802 ft | 529 kts | 102° |
| 2026-05-07 11:27 | 23.28061 | 49.55936 | 38797 ft | 529 kts | 102° |
| 2026-05-07 11:28 | 23.26916 | 49.63770 | 38800 ft | 528 kts | 102° |
| 2026-05-07 11:28 | 23.25759 | 49.71660 | 38800 ft | 528 kts | 102° |
| 2026-05-07 11:29 | 23.24599 | 49.79536 | 38801 ft | 528 kts | 102° |
| 2026-05-07 11:29 | 23.23435 | 49.87414 | 38798 ft | 527 kts | 102° |
| 2026-05-07 11:30 | 23.22276 | 49.95229 | 38794 ft | 527 kts | 102° |
| 2026-05-07 11:30 | 23.21106 | 50.03093 | 38799 ft | 527 kts | 102° |
| 2026-05-07 11:31 | 23.19934 | 50.10944 | 38799 ft | 526 kts | 102° |
| 2026-05-07 11:31 | 23.18758 | 50.18787 | 38796 ft | 526 kts | 101° |
| 2026-05-07 11:32 | 23.16987 | 50.30555 | 38795 ft | 526 kts | 102° |
| 2026-05-07 11:33 | 23.15811 | 50.38337 | 38795 ft | 525 kts | 101° |
| 2026-05-07 11:33 | 23.14624 | 50.46166 | 38792 ft | 525 kts | 101° |
| 2026-05-07 11:34 | 23.13433 | 50.53992 | 38792 ft | 525 kts | 101° |
| 2026-05-07 11:34 | 23.12238 | 50.61810 | 38786 ft | 524 kts | 102° |
| 2026-05-07 11:35 | 23.11050 | 50.69565 | 38790 ft | 524 kts | 101° |
| 2026-05-07 11:35 | 23.09850 | 50.77371 | 38787 ft | 524 kts | 101° |
| 2026-05-07 11:36 | 23.08648 | 50.85164 | 38785 ft | 523 kts | 101° |
| 2026-05-07 11:36 | 23.07441 | 50.92964 | 38784 ft | 523 kts | 101° |
| 2026-05-07 11:37 | 23.06232 | 51.00748 | 38784 ft | 523 kts | 101° |
| 2026-05-07 11:37 | 23.05029 | 51.08468 | 38783 ft | 523 kts | 101° |
| 2026-05-07 11:38 | 23.03811 | 51.16255 | 38779 ft | 522 kts | 101° |
| 2026-05-07 11:38 | 23.02594 | 51.24018 | 38780 ft | 522 kts | 101° |
| 2026-05-07 11:39 | 23.01372 | 51.31781 | 38779 ft | 521 kts | 101° |
| 2026-05-07 11:39 | 23.00156 | 51.39483 | 38780 ft | 521 kts | 101° |
| 2026-05-07 11:40 | 22.98929 | 51.47231 | 38779 ft | 521 kts | 101° |
| 2026-05-07 11:40 | 22.97698 | 51.54975 | 38779 ft | 520 kts | 101° |
| 2026-05-07 11:41 | 22.96467 | 51.62698 | 38774 ft | 520 kts | 101° |
| 2026-05-07 11:41 | 22.95242 | 51.70359 | 38775 ft | 519 kts | 101° |
| 2026-05-07 11:42 | 22.94002 | 51.78089 | 38774 ft | 519 kts | 101° |
| 2026-05-07 11:42 | 22.92761 | 51.85798 | 38774 ft | 518 kts | 101° |
| 2026-05-07 11:43 | 22.91519 | 51.93491 | 38774 ft | 518 kts | 101° |
| 2026-05-07 11:43 | 22.90282 | 52.01125 | 38773 ft | 517 kts | 101° |
| 2026-05-07 11:44 | 22.89035 | 52.08797 | 38772 ft | 517 kts | 101° |
| 2026-05-07 11:44 | 22.87785 | 52.16470 | 38773 ft | 516 kts | 101° |
| 2026-05-07 11:45 | 22.86533 | 52.24129 | 38769 ft | 516 kts | 101° |
| 2026-05-07 11:45 | 22.85276 | 52.31790 | 38766 ft | 516 kts | 101° |
| 2026-05-07 11:46 | 22.84028 | 52.39384 | 38769 ft | 515 kts | 102° |
| 2026-05-07 11:46 | 22.82773 | 52.47028 | 38769 ft | 515 kts | 100° |
| 2026-05-07 11:47 | 22.82284 | 52.54781 | 38766 ft | 516 kts | 92° |
| 2026-05-07 11:47 | 22.82103 | 52.62550 | 38768 ft | 516 kts | 92° |
| 2026-05-07 11:48 | 22.81902 | 52.70321 | 38764 ft | 516 kts | 92° |
| 2026-05-07 11:48 | 22.81698 | 52.78044 | 38764 ft | 516 kts | 92° |
| 2026-05-07 11:49 | 22.81489 | 52.85814 | 38765 ft | 516 kts | 92° |
| 2026-05-07 11:49 | 22.81276 | 52.93582 | 38770 ft | 516 kts | 92° |
| 2026-05-07 11:50 | 22.81059 | 53.01349 | 38770 ft | 516 kts | 92° |
| 2026-05-07 11:50 | 22.80841 | 53.09078 | 38773 ft | 516 kts | 92° |
| 2026-05-07 11:51 | 22.80615 | 53.16897 | 38769 ft | 516 kts | 92° |
| 2026-05-07 11:51 | 22.80389 | 53.24614 | 38774 ft | 516 kts | 93° |
| 2026-05-07 11:52 | 22.80157 | 53.32388 | 38775 ft | 516 kts | 93° |
| 2026-05-07 11:52 | 22.79923 | 53.40159 | 38771 ft | 516 kts | 93° |
| 2026-05-07 11:53 | 22.79683 | 53.47929 | 38777 ft | 516 kts | 93° |
| 2026-05-07 11:53 | 22.79441 | 53.55660 | 38781 ft | 516 kts | 93° |
| 2026-05-07 11:54 | 22.79195 | 53.63437 | 38781 ft | 517 kts | 93° |
| 2026-05-07 11:54 | 22.78944 | 53.71217 | 38782 ft | 517 kts | 93° |
| 2026-05-07 11:55 | 22.78690 | 53.79000 | 38784 ft | 517 kts | 93° |
| 2026-05-07 11:55 | 22.78433 | 53.86727 | 38785 ft | 517 kts | 93° |
| 2026-05-07 11:56 | 22.78173 | 53.94506 | 38783 ft | 517 kts | 92° |
| 2026-05-07 11:56 | 22.78641 | 54.02275 | 38780 ft | 518 kts | 81° |
| 2026-05-07 11:57 | 22.80133 | 54.09895 | 38787 ft | 518 kts | 77° |
| 2026-05-07 11:57 | 22.81682 | 54.17518 | 38786 ft | 518 kts | 78° |
| 2026-05-07 11:58 | 22.83212 | 54.25087 | 38783 ft | 518 kts | 78° |
| 2026-05-07 11:58 | 22.84754 | 54.32715 | 38784 ft | 518 kts | 78° |
| 2026-05-07 11:59 | 22.86292 | 54.40337 | 38789 ft | 518 kts | 78° |
| 2026-05-07 11:59 | 22.87830 | 54.47977 | 38790 ft | 518 kts | 78° |
| 2026-05-07 12:00 | 22.89352 | 54.55559 | 38789 ft | 518 kts | 78° |
| 2026-05-07 12:00 | 22.90880 | 54.63186 | 38792 ft | 518 kts | 78° |
| 2026-05-07 12:01 | 22.92407 | 54.70834 | 38788 ft | 518 kts | 78° |
| 2026-05-07 12:01 | 22.93930 | 54.78479 | 38788 ft | 518 kts | 78° |
| 2026-05-07 12:02 | 22.95448 | 54.86119 | 38787 ft | 518 kts | 78° |
| 2026-05-07 12:02 | 22.96955 | 54.93721 | 38795 ft | 519 kts | 78° |
| 2026-05-07 12:03 | 22.98467 | 55.01372 | 38803 ft | 519 kts | 78° |
| 2026-05-07 12:03 | 22.99975 | 55.09023 | 38808 ft | 518 kts | 78° |
| 2026-05-07 12:04 | 23.02340 | 55.16375 | 38810 ft | 517 kts | 59° |
| 2026-05-07 12:04 | 23.06699 | 55.22427 | 38812 ft | 513 kts | 40° |
| 2026-05-07 12:05 | 23.12587 | 55.26680 | 38811 ft | 507 kts | 21° |
| 2026-05-07 12:05 | 23.19263 | 55.28960 | 38815 ft | 503 kts | 12° |
| 2026-05-07 12:06 | 23.26012 | 55.30944 | 38824 ft | 504 kts | 12° |
| 2026-05-07 12:06 | 23.32738 | 55.32934 | 38825 ft | 505 kts | 12° |
| 2026-05-07 12:07 | 23.39483 | 55.34926 | 38831 ft | 505 kts | 12° |
| 2026-05-07 12:07 | 23.46269 | 55.36932 | 38838 ft | 506 kts | 12° |
| 2026-05-07 12:08 | 23.53056 | 55.38941 | 38836 ft | 506 kts | 12° |
| 2026-05-07 12:08 | 23.59853 | 55.40951 | 38837 ft | 506 kts | 12° |
| 2026-05-07 12:08 | 23.63244 | 55.41956 | 38685 ft | 503 kts | 12° |
| 2026-05-07 12:09 | 23.66612 | 55.42955 | 38452 ft | 499 kts | 12° |
| 2026-05-07 12:09 | 23.69962 | 55.43948 | 38187 ft | 499 kts | 12° |
| 2026-05-07 12:09 | 23.73311 | 55.44940 | 37918 ft | 500 kts | 12° |
| 2026-05-07 12:09 | 23.76674 | 55.45937 | 37575 ft | 501 kts | 12° |
| 2026-05-07 12:10 | 23.80042 | 55.46937 | 36874 ft | 503 kts | 12° |
| 2026-05-07 12:10 | 23.83430 | 55.47942 | 35958 ft | 507 kts | 12° |
| 2026-05-07 12:10 | 23.86857 | 55.48960 | 34943 ft | 513 kts | 12° |
| 2026-05-07 12:10 | 23.90285 | 55.49976 | 33924 ft | 520 kts | 12° |
| 2026-05-07 12:11 | 23.93710 | 55.50994 | 33100 ft | 519 kts | 12° |
| 2026-05-07 12:11 | 23.97161 | 55.52080 | 32532 ft | 514 kts | 17° |
| 2026-05-07 12:11 | 24.00409 | 55.53644 | 32217 ft | 506 kts | 26° |
| 2026-05-07 12:11 | 24.03372 | 55.55677 | 31802 ft | 500 kts | 34° |
| 2026-05-07 12:12 | 24.06033 | 55.58121 | 31091 ft | 502 kts | 41° |
| 2026-05-07 12:12 | 24.08610 | 55.60701 | 30554 ft | 497 kts | 40° |
| 2026-05-07 12:12 | 24.11158 | 55.63227 | 29988 ft | 494 kts | 40° |
| 2026-05-07 12:12 | 24.13706 | 55.65746 | 29342 ft | 490 kts | 40° |
| 2026-05-07 12:13 | 24.16182 | 55.68197 | 28774 ft | 485 kts | 40° |
| 2026-05-07 12:13 | 24.18674 | 55.70666 | 28169 ft | 480 kts | 40° |
| 2026-05-07 12:13 | 24.21129 | 55.73102 | 27616 ft | 475 kts | 41° |
| 2026-05-07 12:13 | 24.23560 | 55.75517 | 27025 ft | 470 kts | 41° |
| 2026-05-07 12:14 | 24.25964 | 55.77905 | 26443 ft | 465 kts | 41° |
| 2026-05-07 12:14 | 24.28361 | 55.80289 | 25881 ft | 461 kts | 41° |
| 2026-05-07 12:14 | 24.30726 | 55.82643 | 25309 ft | 457 kts | 41° |
| 2026-05-07 12:14 | 24.33067 | 55.84972 | 24746 ft | 453 kts | 41° |
| 2026-05-07 12:15 | 24.35388 | 55.87285 | 24187 ft | 449 kts | 41° |
| 2026-05-07 12:15 | 24.37691 | 55.89578 | 23630 ft | 445 kts | 41° |
| 2026-05-07 12:15 | 24.39949 | 55.91828 | 22962 ft | 443 kts | 41° |
| 2026-05-07 12:15 | 24.42204 | 55.94076 | 22431 ft | 435 kts | 41° |
| 2026-05-07 12:16 | 24.44427 | 55.96294 | 21905 ft | 428 kts | 41° |
| 2026-05-07 12:16 | 24.46617 | 55.98479 | 21359 ft | 423 kts | 42° |
| 2026-05-07 12:16 | 24.48817 | 56.00582 | 20925 ft | 415 kts | 36° |
| 2026-05-07 12:16 | 24.51294 | 56.02098 | 20476 ft | 403 kts | 20° |
| 2026-05-07 12:17 | 24.53982 | 56.02856 | 19761 ft | 398 kts | 5° |
| 2026-05-07 12:17 | 24.56734 | 56.02860 | 18984 ft | 395 kts | 352° |
| 2026-05-07 12:17 | 24.59388 | 56.02137 | 18192 ft | 393 kts | 338° |
| 2026-05-07 12:17 | 24.61775 | 56.00762 | 17334 ft | 392 kts | 325° |
| 2026-05-07 12:18 | 24.63983 | 55.99036 | 16454 ft | 390 kts | 325° |
| 2026-05-07 12:18 | 24.66209 | 55.97328 | 15597 ft | 389 kts | 326° |
| 2026-05-07 12:18 | 24.68429 | 55.95638 | 14778 ft | 387 kts | 326° |
| 2026-05-07 12:18 | 24.70643 | 55.93952 | 13975 ft | 387 kts | 326° |
| 2026-05-07 12:19 | 24.72850 | 55.92267 | 13122 ft | 386 kts | 326° |
| 2026-05-07 12:19 | 24.75049 | 55.90587 | 12266 ft | 384 kts | 325° |
| 2026-05-07 12:19 | 24.77225 | 55.88922 | 11548 ft | 377 kts | 324° |
| 2026-05-07 12:19 | 24.79337 | 55.87299 | 11143 ft | 362 kts | 324° |
| 2026-05-07 12:20 | 24.81342 | 55.85760 | 10970 ft | 341 kts | 324° |
| 2026-05-07 12:20 | 24.83239 | 55.84307 | 10860 ft | 323 kts | 324° |
| 2026-05-07 12:20 | 24.85012 | 55.82949 | 10720 ft | 308 kts | 324° |
| 2026-05-07 12:20 | 24.86748 | 55.81617 | 10438 ft | 302 kts | 324° |
| 2026-05-07 12:21 | 24.88467 | 55.80297 | 9916 ft | 300 kts | 324° |
| 2026-05-07 12:21 | 24.90175 | 55.78988 | 9380 ft | 298 kts | 323° |
| 2026-05-07 12:21 | 24.91847 | 55.77701 | 9066 ft | 286 kts | 323° |
| 2026-05-07 12:21 | 24.93435 | 55.76481 | 8905 ft | 270 kts | 323° |
| 2026-05-07 12:22 | 24.94949 | 55.75318 | 8544 ft | 263 kts | 323° |
| 2026-05-07 12:22 | 24.96442 | 55.74168 | 8048 ft | 261 kts | 322° |
| 2026-05-07 12:22 | 24.97897 | 55.73047 | 7600 ft | 259 kts | 322° |
| 2026-05-07 12:22 | 24.99369 | 55.71913 | 7129 ft | 256 kts | 322° |
| 2026-05-07 12:23 | 25.00826 | 55.70788 | 6673 ft | 255 kts | 322° |
| 2026-05-07 12:23 | 25.02261 | 55.69682 | 6226 ft | 254 kts | 323° |
| 2026-05-07 12:23 | 25.03702 | 55.68574 | 5803 ft | 251 kts | 323° |
| 2026-05-07 12:23 | 25.05118 | 55.67486 | 5439 ft | 243 kts | 322° |
| 2026-05-07 12:24 | 25.06480 | 55.66437 | 5063 ft | 236 kts | 323° |
| 2026-05-07 12:24 | 25.07806 | 55.65419 | 4781 ft | 229 kts | 322° |
| 2026-05-07 12:24 | 25.09096 | 55.64418 | 4496 ft | 223 kts | 319° |
| 2026-05-07 12:24 | 25.10210 | 55.63283 | 4220 ft | 215 kts | 307° |
| 2026-05-07 12:25 | 25.11095 | 55.61996 | 3966 ft | 202 kts | 301° |
| 2026-05-07 12:25 | 25.11832 | 55.60728 | 3693 ft | 193 kts | 299° |
| 2026-05-07 12:25 | 25.12527 | 55.59479 | 3402 ft | 190 kts | 298° |
| 2026-05-07 12:25 | 25.13215 | 55.58241 | 3134 ft | 189 kts | 297° |
| 2026-05-07 12:26 | 25.13891 | 55.57016 | 2859 ft | 189 kts | 298° |
| 2026-05-07 12:26 | 25.14571 | 55.55785 | 2581 ft | 188 kts | 298° |
| 2026-05-07 12:26 | 25.15251 | 55.54559 | 2284 ft | 186 kts | 298° |
| 2026-05-07 12:26 | 25.15924 | 55.53347 | 2040 ft | 183 kts | 298° |
| 2026-05-07 12:27 | 25.16571 | 55.52178 | 2009 ft | 171 kts | 298° |
| 2026-05-07 12:27 | 25.17161 | 55.51112 | 1974 ft | 157 kts | 297° |
| 2026-05-07 12:27 | 25.17718 | 55.50073 | 1933 ft | 159 kts | 298° |
| 2026-05-07 12:27 | 25.18316 | 55.49043 | 1892 ft | 155 kts | 299° |
| 2026-05-07 12:28 | 25.18899 | 55.48040 | 1766 ft | 153 kts | 297° |
| 2026-05-07 12:28 | 25.19426 | 55.47046 | 1609 ft | 156 kts | 295° |
| 2026-05-07 12:28 | 25.19972 | 55.45976 | 1361 ft | 161 kts | 296° |
| 2026-05-07 12:28 | 25.20533 | 55.44963 | 1227 ft | 147 kts | 298° |
| 2026-05-07 12:29 | 25.21074 | 55.44030 | 1008 ft | 143 kts | 298° |
| 2026-05-07 12:29 | 25.21602 | 55.43106 | 793 ft | 140 kts | 297° |
| 2026-05-07 12:29 | 25.22086 | 55.42186 | 616 ft | 139 kts | 296° |
| 2026-05-07 12:29 | 25.22600 | 55.41276 | 400 ft | 139 kts | 296° |
| 2026-05-07 12:30 | 25.23101 | 55.40376 | 241 ft | 137 kts | 296° |
| 2026-05-07 12:30 | 25.23597 | 55.39466 | 66 ft | 139 kts | 298° |
| 2026-05-07 12:30 | 25.24069 | 55.38599 | 35 ft | 113 kts | 301° |
| 2026-05-07 12:30 | 25.24412 | 55.37995 | 35 ft | 76 kts | 303° |
| 2026-05-07 12:31 | 25.24633 | 55.37596 | 33 ft | 35 kts | 301° |
| 2026-05-07 12:31 | 25.24740 | 55.37395 | 33 ft | 27 kts | 297° |
| 2026-05-07 12:31 | 25.24785 | 55.37227 | 34 ft | 17 kts | 270° |
| 2026-05-07 12:31 | 25.24788 | 55.37097 | 31 ft | 14 kts | 272° |
| 2026-05-07 12:32 | 25.24789 | 55.37076 | 30 ft | 4 kts | 272° |
| 2026-05-07 12:32 | 25.24791 | 55.37042 | 29 ft | 1 kts | 272° |
| 2026-05-07 12:32 | 25.24791 | 55.37011 | 29 ft | 7 kts | 264° |
| 2026-05-07 12:32 | 25.24773 | 55.36960 | 28 ft | 7 kts | 233° |
| 2026-05-07 12:33 | 25.24665 | 55.36880 | 27 ft | 12 kts | 206° |
| 2026-05-07 12:33 | 25.24584 | 55.36831 | 26 ft | 14 kts | 212° |
| 2026-05-07 12:33 | 25.24512 | 55.36781 | 32 ft | 11 kts | 211° |
| 2026-05-07 12:34 | 25.24437 | 55.36733 | 29 ft | 13 kts | 201° |
| 2026-05-07 12:34 | 25.24369 | 55.36752 | 27 ft | 10 kts | 126° |
| 2026-05-07 12:34 | 25.24327 | 55.36829 | 30 ft | 11 kts | 123° |
| 2026-05-07 12:34 | 25.24319 | 55.36881 | 32 ft | 7 kts | 56° |
| 2026-05-07 12:35 | 25.24355 | 55.36914 | 32 ft | 7 kts | 34° |
| 2026-05-07 12:35 | 25.24375 | 55.36929 | 29 ft | 2 kts | 32° |
| 2026-05-07 12:35 | 25.24376 | 55.36929 | 29 ft | 0 kts | 32° |